<?xml version="1.0" encoding="UTF-8" standalone="no" ?>
<gpx xmlns="http://www.topografix.com/GPX/1/1" xmlns:xsi="http://www.w3.org/2001/XMLSchema-instance" xsi:schemaLocation="http://www.topografix.com/GPX/1/1 http://www.topografix.com/GPX/1/1/gpx.xsd" version="1.1" creator="VisuGPX - https://www.visugpx.com">
  <metadata>
    <name>Objectif lune - nocturne Cousolre 2015</name>
    <desc><![CDATA[Nocturne avec des belles montées.
dur dur !!!]]></desc>
  </metadata>
  <trk>
    <name><![CDATA[2015-07-12 08:19:52]]></name>
    <trkseg>
      <trkpt lat="50.24339" lon="4.15371">
        <ele>166.45</ele>
        <time>2015-07-11T19:57:29Z</time>
      </trkpt>
      <trkpt lat="50.24339" lon="4.15371">
        <ele>166.45</ele>
        <time>2015-07-11T19:57:30Z</time>
      </trkpt>
      <trkpt lat="50.24337" lon="4.15371">
        <ele>165.96</ele>
        <time>2015-07-11T19:57:47Z</time>
      </trkpt>
      <trkpt lat="50.24338" lon="4.15372">
        <ele>166.45</ele>
        <time>2015-07-11T19:58:12Z</time>
      </trkpt>
      <trkpt lat="50.24338" lon="4.15371">
        <ele>166.45</ele>
        <time>2015-07-11T19:58:43Z</time>
      </trkpt>
      <trkpt lat="50.24338" lon="4.15373">
        <ele>166.45</ele>
        <time>2015-07-11T19:59:08Z</time>
      </trkpt>
      <trkpt lat="50.24339" lon="4.15372">
        <ele>166.45</ele>
        <time>2015-07-11T19:59:31Z</time>
      </trkpt>
      <trkpt lat="50.2434" lon="4.15369">
        <ele>166.45</ele>
        <time>2015-07-11T19:59:52Z</time>
      </trkpt>
      <trkpt lat="50.2434" lon="4.1537">
        <ele>166.45</ele>
        <time>2015-07-11T20:00:16Z</time>
      </trkpt>
      <trkpt lat="50.24339" lon="4.15373">
        <ele>166.93</ele>
        <time>2015-07-11T20:00:42Z</time>
      </trkpt>
      <trkpt lat="50.24339" lon="4.1537">
        <ele>165.48</ele>
        <time>2015-07-11T20:01:14Z</time>
      </trkpt>
      <trkpt lat="50.24338" lon="4.15373">
        <ele>165.96</ele>
        <time>2015-07-11T20:01:37Z</time>
      </trkpt>
      <trkpt lat="50.24337" lon="4.15373">
        <ele>165.96</ele>
        <time>2015-07-11T20:02:01Z</time>
      </trkpt>
      <trkpt lat="50.24337" lon="4.15373">
        <ele>165.96</ele>
        <time>2015-07-11T20:02:29Z</time>
      </trkpt>
      <trkpt lat="50.24338" lon="4.15371">
        <ele>165.48</ele>
        <time>2015-07-11T20:02:58Z</time>
      </trkpt>
      <trkpt lat="50.24338" lon="4.15372">
        <ele>165.48</ele>
        <time>2015-07-11T20:03:16Z</time>
      </trkpt>
      <trkpt lat="50.2434" lon="4.15371">
        <ele>165.96</ele>
        <time>2015-07-11T20:03:38Z</time>
      </trkpt>
      <trkpt lat="50.24338" lon="4.15372">
        <ele>165.48</ele>
        <time>2015-07-11T20:04:05Z</time>
      </trkpt>
      <trkpt lat="50.24337" lon="4.15371">
        <ele>165.48</ele>
        <time>2015-07-11T20:04:35Z</time>
      </trkpt>
      <trkpt lat="50.24339" lon="4.15374">
        <ele>165.48</ele>
        <time>2015-07-11T20:04:59Z</time>
      </trkpt>
      <trkpt lat="50.2434" lon="4.15378">
        <ele>165.48</ele>
        <time>2015-07-11T20:05:12Z</time>
      </trkpt>
      <trkpt lat="50.24339" lon="4.15382">
        <ele>165.96</ele>
        <time>2015-07-11T20:05:29Z</time>
      </trkpt>
      <trkpt lat="50.2434" lon="4.15394">
        <ele>165.48</ele>
        <time>2015-07-11T20:05:42Z</time>
      </trkpt>
      <trkpt lat="50.24341" lon="4.15403">
        <ele>165.48</ele>
        <time>2015-07-11T20:05:59Z</time>
      </trkpt>
      <trkpt lat="50.24351" lon="4.15404">
        <ele>165</ele>
        <time>2015-07-11T20:06:13Z</time>
      </trkpt>
      <trkpt lat="50.24369" lon="4.15402">
        <ele>164.04</ele>
        <time>2015-07-11T20:06:27Z</time>
      </trkpt>
      <trkpt lat="50.244" lon="4.15391">
        <ele>161.64</ele>
        <time>2015-07-11T20:06:41Z</time>
      </trkpt>
      <trkpt lat="50.24436" lon="4.15375">
        <ele>159.24</ele>
        <time>2015-07-11T20:06:54Z</time>
      </trkpt>
      <trkpt lat="50.24476" lon="4.15355">
        <ele>159.24</ele>
        <time>2015-07-11T20:07:09Z</time>
      </trkpt>
      <trkpt lat="50.24507" lon="4.15337">
        <ele>160.2</ele>
        <time>2015-07-11T20:07:24Z</time>
      </trkpt>
      <trkpt lat="50.24526" lon="4.15294">
        <ele>160.68</ele>
        <time>2015-07-11T20:07:36Z</time>
      </trkpt>
      <trkpt lat="50.24533" lon="4.15232">
        <ele>159.24</ele>
        <time>2015-07-11T20:07:46Z</time>
      </trkpt>
      <trkpt lat="50.24547" lon="4.15154">
        <ele>156.83</ele>
        <time>2015-07-11T20:07:56Z</time>
      </trkpt>
      <trkpt lat="50.24558" lon="4.15092">
        <ele>153.95</ele>
        <time>2015-07-11T20:08:05Z</time>
      </trkpt>
      <trkpt lat="50.24557" lon="4.15085">
        <ele>153.95</ele>
        <time>2015-07-11T20:08:06Z</time>
      </trkpt>
      <trkpt lat="50.24555" lon="4.15077">
        <ele>153.47</ele>
        <time>2015-07-11T20:08:07Z</time>
      </trkpt>
      <trkpt lat="50.24551" lon="4.15071">
        <ele>153.47</ele>
        <time>2015-07-11T20:08:08Z</time>
      </trkpt>
      <trkpt lat="50.24548" lon="4.15067">
        <ele>153.47</ele>
        <time>2015-07-11T20:08:09Z</time>
      </trkpt>
      <trkpt lat="50.24545" lon="4.15063">
        <ele>153.47</ele>
        <time>2015-07-11T20:08:10Z</time>
      </trkpt>
      <trkpt lat="50.24537" lon="4.15055">
        <ele>152.99</ele>
        <time>2015-07-11T20:08:12Z</time>
      </trkpt>
      <trkpt lat="50.24532" lon="4.15051">
        <ele>152.99</ele>
        <time>2015-07-11T20:08:13Z</time>
      </trkpt>
      <trkpt lat="50.24528" lon="4.15048">
        <ele>152.99</ele>
        <time>2015-07-11T20:08:14Z</time>
      </trkpt>
      <trkpt lat="50.24519" lon="4.15044">
        <ele>152.99</ele>
        <time>2015-07-11T20:08:16Z</time>
      </trkpt>
      <trkpt lat="50.24514" lon="4.15043">
        <ele>152.99</ele>
        <time>2015-07-11T20:08:17Z</time>
      </trkpt>
      <trkpt lat="50.24443" lon="4.15008">
        <ele>155.39</ele>
        <time>2015-07-11T20:08:34Z</time>
      </trkpt>
      <trkpt lat="50.244" lon="4.14984">
        <ele>158.75</ele>
        <time>2015-07-11T20:08:46Z</time>
      </trkpt>
      <trkpt lat="50.24356" lon="4.1496">
        <ele>160.2</ele>
        <time>2015-07-11T20:08:59Z</time>
      </trkpt>
      <trkpt lat="50.24301" lon="4.14926">
        <ele>161.64</ele>
        <time>2015-07-11T20:09:14Z</time>
      </trkpt>
      <trkpt lat="50.24284" lon="4.14916">
        <ele>162.12</ele>
        <time>2015-07-11T20:09:19Z</time>
      </trkpt>
      <trkpt lat="50.2428" lon="4.14913">
        <ele>162.6</ele>
        <time>2015-07-11T20:09:20Z</time>
      </trkpt>
      <trkpt lat="50.24276" lon="4.1491">
        <ele>162.6</ele>
        <time>2015-07-11T20:09:21Z</time>
      </trkpt>
      <trkpt lat="50.24272" lon="4.14908">
        <ele>162.6</ele>
        <time>2015-07-11T20:09:22Z</time>
      </trkpt>
      <trkpt lat="50.24269" lon="4.14905">
        <ele>163.08</ele>
        <time>2015-07-11T20:09:23Z</time>
      </trkpt>
      <trkpt lat="50.24258" lon="4.14897">
        <ele>163.56</ele>
        <time>2015-07-11T20:09:26Z</time>
      </trkpt>
      <trkpt lat="50.24255" lon="4.14894">
        <ele>164.04</ele>
        <time>2015-07-11T20:09:27Z</time>
      </trkpt>
      <trkpt lat="50.24196" lon="4.14834">
        <ele>166.45</ele>
        <time>2015-07-11T20:09:44Z</time>
      </trkpt>
      <trkpt lat="50.24194" lon="4.14828">
        <ele>166.45</ele>
        <time>2015-07-11T20:09:45Z</time>
      </trkpt>
      <trkpt lat="50.24158" lon="4.14754">
        <ele>167.41</ele>
        <time>2015-07-11T20:09:59Z</time>
      </trkpt>
      <trkpt lat="50.24125" lon="4.14689">
        <ele>167.89</ele>
        <time>2015-07-11T20:10:13Z</time>
      </trkpt>
      <trkpt lat="50.2411" lon="4.14653">
        <ele>167.89</ele>
        <time>2015-07-11T20:10:27Z</time>
      </trkpt>
      <trkpt lat="50.24105" lon="4.14645">
        <ele>166.45</ele>
        <time>2015-07-11T20:10:29Z</time>
      </trkpt>
      <trkpt lat="50.24096" lon="4.14631">
        <ele>165.48</ele>
        <time>2015-07-11T20:10:32Z</time>
      </trkpt>
      <trkpt lat="50.24093" lon="4.14626">
        <ele>165.48</ele>
        <time>2015-07-11T20:10:33Z</time>
      </trkpt>
      <trkpt lat="50.2409" lon="4.1462">
        <ele>165.48</ele>
        <time>2015-07-11T20:10:34Z</time>
      </trkpt>
      <trkpt lat="50.24052" lon="4.14579">
        <ele>162.12</ele>
        <time>2015-07-11T20:10:42Z</time>
      </trkpt>
      <trkpt lat="50.23999" lon="4.14546">
        <ele>158.75</ele>
        <time>2015-07-11T20:10:51Z</time>
      </trkpt>
      <trkpt lat="50.23956" lon="4.14523">
        <ele>155.39</ele>
        <time>2015-07-11T20:10:59Z</time>
      </trkpt>
      <trkpt lat="50.23925" lon="4.14521">
        <ele>152.99</ele>
        <time>2015-07-11T20:11:09Z</time>
      </trkpt>
      <trkpt lat="50.23912" lon="4.14527">
        <ele>152.51</ele>
        <time>2015-07-11T20:11:22Z</time>
      </trkpt>
      <trkpt lat="50.23906" lon="4.14532">
        <ele>151.54</ele>
        <time>2015-07-11T20:11:38Z</time>
      </trkpt>
      <trkpt lat="50.23899" lon="4.14541">
        <ele>151.54</ele>
        <time>2015-07-11T20:11:50Z</time>
      </trkpt>
      <trkpt lat="50.23893" lon="4.14546">
        <ele>151.54</ele>
        <time>2015-07-11T20:12:02Z</time>
      </trkpt>
      <trkpt lat="50.23883" lon="4.14544">
        <ele>151.54</ele>
        <time>2015-07-11T20:12:08Z</time>
      </trkpt>
      <trkpt lat="50.23878" lon="4.14546">
        <ele>151.54</ele>
        <time>2015-07-11T20:12:13Z</time>
      </trkpt>
      <trkpt lat="50.23871" lon="4.14558">
        <ele>151.06</ele>
        <time>2015-07-11T20:12:20Z</time>
      </trkpt>
      <trkpt lat="50.23852" lon="4.1457">
        <ele>151.06</ele>
        <time>2015-07-11T20:12:33Z</time>
      </trkpt>
      <trkpt lat="50.23839" lon="4.14575">
        <ele>151.06</ele>
        <time>2015-07-11T20:12:47Z</time>
      </trkpt>
      <trkpt lat="50.23834" lon="4.14578">
        <ele>151.06</ele>
        <time>2015-07-11T20:12:57Z</time>
      </trkpt>
      <trkpt lat="50.23824" lon="4.14577">
        <ele>151.06</ele>
        <time>2015-07-11T20:13:10Z</time>
      </trkpt>
      <trkpt lat="50.23816" lon="4.14577">
        <ele>151.06</ele>
        <time>2015-07-11T20:13:35Z</time>
      </trkpt>
      <trkpt lat="50.23808" lon="4.14574">
        <ele>151.06</ele>
        <time>2015-07-11T20:13:41Z</time>
      </trkpt>
      <trkpt lat="50.23786" lon="4.14568">
        <ele>150.58</ele>
        <time>2015-07-11T20:13:53Z</time>
      </trkpt>
      <trkpt lat="50.23781" lon="4.14567">
        <ele>150.58</ele>
        <time>2015-07-11T20:14:11Z</time>
      </trkpt>
      <trkpt lat="50.23777" lon="4.14565">
        <ele>150.58</ele>
        <time>2015-07-11T20:14:19Z</time>
      </trkpt>
      <trkpt lat="50.23765" lon="4.14565">
        <ele>151.06</ele>
        <time>2015-07-11T20:14:26Z</time>
      </trkpt>
      <trkpt lat="50.23753" lon="4.14566">
        <ele>151.06</ele>
        <time>2015-07-11T20:14:39Z</time>
      </trkpt>
      <trkpt lat="50.23739" lon="4.14567">
        <ele>151.06</ele>
        <time>2015-07-11T20:14:53Z</time>
      </trkpt>
      <trkpt lat="50.23736" lon="4.14569">
        <ele>151.06</ele>
        <time>2015-07-11T20:14:55Z</time>
      </trkpt>
      <trkpt lat="50.23733" lon="4.14571">
        <ele>151.06</ele>
        <time>2015-07-11T20:14:56Z</time>
      </trkpt>
      <trkpt lat="50.23731" lon="4.14571">
        <ele>151.06</ele>
        <time>2015-07-11T20:14:57Z</time>
      </trkpt>
      <trkpt lat="50.23728" lon="4.14571">
        <ele>151.06</ele>
        <time>2015-07-11T20:14:58Z</time>
      </trkpt>
      <trkpt lat="50.23726" lon="4.14571">
        <ele>151.06</ele>
        <time>2015-07-11T20:14:59Z</time>
      </trkpt>
      <trkpt lat="50.23724" lon="4.1457">
        <ele>152.03</ele>
        <time>2015-07-11T20:15:00Z</time>
      </trkpt>
      <trkpt lat="50.23721" lon="4.14571">
        <ele>152.03</ele>
        <time>2015-07-11T20:15:01Z</time>
      </trkpt>
      <trkpt lat="50.23707" lon="4.14576">
        <ele>153.47</ele>
        <time>2015-07-11T20:15:06Z</time>
      </trkpt>
      <trkpt lat="50.23705" lon="4.14578">
        <ele>153.47</ele>
        <time>2015-07-11T20:15:07Z</time>
      </trkpt>
      <trkpt lat="50.23704" lon="4.14581">
        <ele>153.47</ele>
        <time>2015-07-11T20:15:08Z</time>
      </trkpt>
      <trkpt lat="50.23702" lon="4.14584">
        <ele>153.47</ele>
        <time>2015-07-11T20:15:09Z</time>
      </trkpt>
      <trkpt lat="50.23699" lon="4.14585">
        <ele>153.47</ele>
        <time>2015-07-11T20:15:10Z</time>
      </trkpt>
      <trkpt lat="50.23696" lon="4.14587">
        <ele>154.43</ele>
        <time>2015-07-11T20:15:11Z</time>
      </trkpt>
      <trkpt lat="50.23663" lon="4.1461">
        <ele>155.87</ele>
        <time>2015-07-11T20:15:22Z</time>
      </trkpt>
      <trkpt lat="50.23631" lon="4.14623">
        <ele>155.87</ele>
        <time>2015-07-11T20:15:33Z</time>
      </trkpt>
      <trkpt lat="50.23593" lon="4.14633">
        <ele>155.87</ele>
        <time>2015-07-11T20:15:44Z</time>
      </trkpt>
      <trkpt lat="50.23557" lon="4.14648">
        <ele>157.31</ele>
        <time>2015-07-11T20:15:55Z</time>
      </trkpt>
      <trkpt lat="50.23514" lon="4.14642">
        <ele>159.24</ele>
        <time>2015-07-11T20:16:07Z</time>
      </trkpt>
      <trkpt lat="50.23469" lon="4.14627">
        <ele>162.12</ele>
        <time>2015-07-11T20:16:19Z</time>
      </trkpt>
      <trkpt lat="50.23423" lon="4.14623">
        <ele>163.08</ele>
        <time>2015-07-11T20:16:30Z</time>
      </trkpt>
      <trkpt lat="50.23388" lon="4.14605">
        <ele>163.08</ele>
        <time>2015-07-11T20:16:40Z</time>
      </trkpt>
      <trkpt lat="50.23372" lon="4.14593">
        <ele>159.72</ele>
        <time>2015-07-11T20:16:44Z</time>
      </trkpt>
      <trkpt lat="50.23363" lon="4.14587">
        <ele>158.27</ele>
        <time>2015-07-11T20:16:46Z</time>
      </trkpt>
      <trkpt lat="50.23352" lon="4.14581">
        <ele>157.79</ele>
        <time>2015-07-11T20:16:48Z</time>
      </trkpt>
      <trkpt lat="50.23331" lon="4.14567">
        <ele>156.83</ele>
        <time>2015-07-11T20:16:52Z</time>
      </trkpt>
      <trkpt lat="50.23292" lon="4.14554">
        <ele>156.83</ele>
        <time>2015-07-11T20:17:03Z</time>
      </trkpt>
      <trkpt lat="50.2325" lon="4.1454">
        <ele>159.24</ele>
        <time>2015-07-11T20:17:16Z</time>
      </trkpt>
      <trkpt lat="50.23214" lon="4.14526">
        <ele>160.68</ele>
        <time>2015-07-11T20:17:29Z</time>
      </trkpt>
      <trkpt lat="50.23185" lon="4.14511">
        <ele>161.64</ele>
        <time>2015-07-11T20:17:40Z</time>
      </trkpt>
      <trkpt lat="50.23164" lon="4.14505">
        <ele>163.56</ele>
        <time>2015-07-11T20:17:53Z</time>
      </trkpt>
      <trkpt lat="50.23143" lon="4.14508">
        <ele>165.48</ele>
        <time>2015-07-11T20:18:06Z</time>
      </trkpt>
      <trkpt lat="50.23115" lon="4.1451">
        <ele>167.89</ele>
        <time>2015-07-11T20:18:16Z</time>
      </trkpt>
      <trkpt lat="50.23081" lon="4.14516">
        <ele>169.81</ele>
        <time>2015-07-11T20:18:27Z</time>
      </trkpt>
      <trkpt lat="50.23049" lon="4.14522">
        <ele>169.81</ele>
        <time>2015-07-11T20:18:37Z</time>
      </trkpt>
      <trkpt lat="50.23024" lon="4.14531">
        <ele>166.93</ele>
        <time>2015-07-11T20:18:42Z</time>
      </trkpt>
      <trkpt lat="50.23019" lon="4.14533">
        <ele>166.45</ele>
        <time>2015-07-11T20:18:43Z</time>
      </trkpt>
      <trkpt lat="50.22997" lon="4.14538">
        <ele>163.56</ele>
        <time>2015-07-11T20:18:47Z</time>
      </trkpt>
      <trkpt lat="50.22992" lon="4.14539">
        <ele>163.08</ele>
        <time>2015-07-11T20:18:48Z</time>
      </trkpt>
      <trkpt lat="50.22982" lon="4.1454">
        <ele>162.6</ele>
        <time>2015-07-11T20:18:50Z</time>
      </trkpt>
      <trkpt lat="50.22976" lon="4.1454">
        <ele>161.64</ele>
        <time>2015-07-11T20:18:51Z</time>
      </trkpt>
      <trkpt lat="50.22971" lon="4.14538">
        <ele>161.16</ele>
        <time>2015-07-11T20:18:52Z</time>
      </trkpt>
      <trkpt lat="50.22965" lon="4.14537">
        <ele>160.68</ele>
        <time>2015-07-11T20:18:53Z</time>
      </trkpt>
      <trkpt lat="50.22955" lon="4.14532">
        <ele>159.72</ele>
        <time>2015-07-11T20:18:55Z</time>
      </trkpt>
      <trkpt lat="50.22951" lon="4.1453">
        <ele>159.24</ele>
        <time>2015-07-11T20:18:56Z</time>
      </trkpt>
      <trkpt lat="50.22946" lon="4.14529">
        <ele>159.24</ele>
        <time>2015-07-11T20:18:57Z</time>
      </trkpt>
      <trkpt lat="50.22937" lon="4.14526">
        <ele>158.27</ele>
        <time>2015-07-11T20:18:59Z</time>
      </trkpt>
      <trkpt lat="50.22931" lon="4.14525">
        <ele>158.27</ele>
        <time>2015-07-11T20:19:00Z</time>
      </trkpt>
      <trkpt lat="50.22909" lon="4.14521">
        <ele>157.31</ele>
        <time>2015-07-11T20:19:06Z</time>
      </trkpt>
      <trkpt lat="50.22907" lon="4.14525">
        <ele>157.31</ele>
        <time>2015-07-11T20:19:07Z</time>
      </trkpt>
      <trkpt lat="50.22902" lon="4.14538">
        <ele>156.83</ele>
        <time>2015-07-11T20:19:09Z</time>
      </trkpt>
      <trkpt lat="50.22899" lon="4.14562">
        <ele>156.83</ele>
        <time>2015-07-11T20:19:12Z</time>
      </trkpt>
      <trkpt lat="50.22903" lon="4.1462">
        <ele>156.35</ele>
        <time>2015-07-11T20:19:21Z</time>
      </trkpt>
      <trkpt lat="50.22906" lon="4.14622">
        <ele>156.35</ele>
        <time>2015-07-11T20:19:22Z</time>
      </trkpt>
      <trkpt lat="50.22923" lon="4.14649">
        <ele>156.35</ele>
        <time>2015-07-11T20:19:30Z</time>
      </trkpt>
      <trkpt lat="50.22915" lon="4.14665">
        <ele>156.35</ele>
        <time>2015-07-11T20:19:33Z</time>
      </trkpt>
      <trkpt lat="50.22907" lon="4.1468">
        <ele>159.24</ele>
        <time>2015-07-11T20:19:37Z</time>
      </trkpt>
      <trkpt lat="50.22906" lon="4.14682">
        <ele>159.72</ele>
        <time>2015-07-11T20:19:38Z</time>
      </trkpt>
      <trkpt lat="50.22903" lon="4.14686">
        <ele>159.72</ele>
        <time>2015-07-11T20:19:40Z</time>
      </trkpt>
      <trkpt lat="50.22901" lon="4.14688">
        <ele>159.72</ele>
        <time>2015-07-11T20:19:41Z</time>
      </trkpt>
      <trkpt lat="50.229" lon="4.14689">
        <ele>159.72</ele>
        <time>2015-07-11T20:19:42Z</time>
      </trkpt>
      <trkpt lat="50.22898" lon="4.1469">
        <ele>159.72</ele>
        <time>2015-07-11T20:19:43Z</time>
      </trkpt>
      <trkpt lat="50.22895" lon="4.14692">
        <ele>159.72</ele>
        <time>2015-07-11T20:19:44Z</time>
      </trkpt>
      <trkpt lat="50.22893" lon="4.14694">
        <ele>159.72</ele>
        <time>2015-07-11T20:19:45Z</time>
      </trkpt>
      <trkpt lat="50.22874" lon="4.14714">
        <ele>142.89</ele>
        <time>2015-07-11T20:19:55Z</time>
      </trkpt>
      <trkpt lat="50.22873" lon="4.14715">
        <ele>175.1</ele>
        <time>2015-07-11T20:19:56Z</time>
      </trkpt>
      <trkpt lat="50.22873" lon="4.14715">
        <ele>163.08</ele>
        <time>2015-07-11T20:19:57Z</time>
      </trkpt>
      <trkpt lat="50.22869" lon="4.14721">
        <ele>163.08</ele>
        <time>2015-07-11T20:20:12Z</time>
      </trkpt>
      <trkpt lat="50.22867" lon="4.14726">
        <ele>164.52</ele>
        <time>2015-07-11T20:20:19Z</time>
      </trkpt>
      <trkpt lat="50.22863" lon="4.1474">
        <ele>167.41</ele>
        <time>2015-07-11T20:20:26Z</time>
      </trkpt>
      <trkpt lat="50.22862" lon="4.14768">
        <ele>170.29</ele>
        <time>2015-07-11T20:20:38Z</time>
      </trkpt>
      <trkpt lat="50.22862" lon="4.14773">
        <ele>170.77</ele>
        <time>2015-07-11T20:20:40Z</time>
      </trkpt>
      <trkpt lat="50.22862" lon="4.14805">
        <ele>173.17</ele>
        <time>2015-07-11T20:20:53Z</time>
      </trkpt>
      <trkpt lat="50.22863" lon="4.14839">
        <ele>175.58</ele>
        <time>2015-07-11T20:21:05Z</time>
      </trkpt>
      <trkpt lat="50.22861" lon="4.14873">
        <ele>177.5</ele>
        <time>2015-07-11T20:21:17Z</time>
      </trkpt>
      <trkpt lat="50.22861" lon="4.14907">
        <ele>180.38</ele>
        <time>2015-07-11T20:21:28Z</time>
      </trkpt>
      <trkpt lat="50.22858" lon="4.14941">
        <ele>183.27</ele>
        <time>2015-07-11T20:21:40Z</time>
      </trkpt>
      <trkpt lat="50.22853" lon="4.1495">
        <ele>184.23</ele>
        <time>2015-07-11T20:21:44Z</time>
      </trkpt>
      <trkpt lat="50.2283" lon="4.14964">
        <ele>187.11</ele>
        <time>2015-07-11T20:21:57Z</time>
      </trkpt>
      <trkpt lat="50.22809" lon="4.14966">
        <ele>190</ele>
        <time>2015-07-11T20:22:07Z</time>
      </trkpt>
      <trkpt lat="50.22801" lon="4.14964">
        <ele>190.48</ele>
        <time>2015-07-11T20:22:11Z</time>
      </trkpt>
      <trkpt lat="50.22792" lon="4.14965">
        <ele>191.92</ele>
        <time>2015-07-11T20:22:15Z</time>
      </trkpt>
      <trkpt lat="50.22757" lon="4.14947">
        <ele>194.32</ele>
        <time>2015-07-11T20:22:30Z</time>
      </trkpt>
      <trkpt lat="50.2275" lon="4.14944">
        <ele>195.28</ele>
        <time>2015-07-11T20:22:33Z</time>
      </trkpt>
      <trkpt lat="50.22716" lon="4.14927">
        <ele>197.21</ele>
        <time>2015-07-11T20:22:48Z</time>
      </trkpt>
      <trkpt lat="50.22698" lon="4.14922">
        <ele>197.69</ele>
        <time>2015-07-11T20:22:56Z</time>
      </trkpt>
      <trkpt lat="50.22691" lon="4.14911">
        <ele>197.69</ele>
        <time>2015-07-11T20:23:01Z</time>
      </trkpt>
      <trkpt lat="50.22683" lon="4.14901">
        <ele>197.69</ele>
        <time>2015-07-11T20:23:07Z</time>
      </trkpt>
      <trkpt lat="50.22652" lon="4.14891">
        <ele>196.73</ele>
        <time>2015-07-11T20:23:20Z</time>
      </trkpt>
      <trkpt lat="50.22646" lon="4.14892">
        <ele>196.73</ele>
        <time>2015-07-11T20:23:23Z</time>
      </trkpt>
      <trkpt lat="50.22626" lon="4.14864">
        <ele>194.8</ele>
        <time>2015-07-11T20:23:35Z</time>
      </trkpt>
      <trkpt lat="50.22613" lon="4.1487">
        <ele>194.32</ele>
        <time>2015-07-11T20:23:41Z</time>
      </trkpt>
      <trkpt lat="50.22603" lon="4.14881">
        <ele>193.36</ele>
        <time>2015-07-11T20:23:47Z</time>
      </trkpt>
      <trkpt lat="50.22599" lon="4.14913">
        <ele>193.36</ele>
        <time>2015-07-11T20:23:55Z</time>
      </trkpt>
      <trkpt lat="50.22596" lon="4.14925">
        <ele>193.36</ele>
        <time>2015-07-11T20:23:59Z</time>
      </trkpt>
      <trkpt lat="50.22588" lon="4.14941">
        <ele>192.88</ele>
        <time>2015-07-11T20:24:08Z</time>
      </trkpt>
      <trkpt lat="50.22596" lon="4.14971">
        <ele>192.88</ele>
        <time>2015-07-11T20:24:17Z</time>
      </trkpt>
      <trkpt lat="50.22598" lon="4.14987">
        <ele>192.88</ele>
        <time>2015-07-11T20:24:22Z</time>
      </trkpt>
      <trkpt lat="50.226" lon="4.1499">
        <ele>192.88</ele>
        <time>2015-07-11T20:24:24Z</time>
      </trkpt>
      <trkpt lat="50.22598" lon="4.14997">
        <ele>192.88</ele>
        <time>2015-07-11T20:24:34Z</time>
      </trkpt>
      <trkpt lat="50.22598" lon="4.15002">
        <ele>192.88</ele>
        <time>2015-07-11T20:24:48Z</time>
      </trkpt>
      <trkpt lat="50.22599" lon="4.15005">
        <ele>192.88</ele>
        <time>2015-07-11T20:24:51Z</time>
      </trkpt>
      <trkpt lat="50.22607" lon="4.15044">
        <ele>192.88</ele>
        <time>2015-07-11T20:25:01Z</time>
      </trkpt>
      <trkpt lat="50.22621" lon="4.15063">
        <ele>193.84</ele>
        <time>2015-07-11T20:25:07Z</time>
      </trkpt>
      <trkpt lat="50.22619" lon="4.15104">
        <ele>194.8</ele>
        <time>2015-07-11T20:25:14Z</time>
      </trkpt>
      <trkpt lat="50.22614" lon="4.15137">
        <ele>190.96</ele>
        <time>2015-07-11T20:25:18Z</time>
      </trkpt>
      <trkpt lat="50.22602" lon="4.15198">
        <ele>194.32</ele>
        <time>2015-07-11T20:25:27Z</time>
      </trkpt>
      <trkpt lat="50.226" lon="4.15203">
        <ele>194.32</ele>
        <time>2015-07-11T20:25:28Z</time>
      </trkpt>
      <trkpt lat="50.2259" lon="4.15242">
        <ele>197.69</ele>
        <time>2015-07-11T20:25:37Z</time>
      </trkpt>
      <trkpt lat="50.22565" lon="4.15295">
        <ele>200.09</ele>
        <time>2015-07-11T20:25:51Z</time>
      </trkpt>
      <trkpt lat="50.22553" lon="4.15303">
        <ele>200.57</ele>
        <time>2015-07-11T20:26:05Z</time>
      </trkpt>
      <trkpt lat="50.22549" lon="4.15307">
        <ele>200.57</ele>
        <time>2015-07-11T20:26:27Z</time>
      </trkpt>
      <trkpt lat="50.22534" lon="4.15319">
        <ele>201.05</ele>
        <time>2015-07-11T20:26:39Z</time>
      </trkpt>
      <trkpt lat="50.22501" lon="4.15349">
        <ele>199.61</ele>
        <time>2015-07-11T20:26:49Z</time>
      </trkpt>
      <trkpt lat="50.22497" lon="4.15351">
        <ele>199.61</ele>
        <time>2015-07-11T20:26:50Z</time>
      </trkpt>
      <trkpt lat="50.22492" lon="4.15353">
        <ele>198.65</ele>
        <time>2015-07-11T20:26:51Z</time>
      </trkpt>
      <trkpt lat="50.2246" lon="4.15363">
        <ele>195.28</ele>
        <time>2015-07-11T20:26:56Z</time>
      </trkpt>
      <trkpt lat="50.2242" lon="4.15377">
        <ele>192.88</ele>
        <time>2015-07-11T20:27:02Z</time>
      </trkpt>
      <trkpt lat="50.22414" lon="4.15381">
        <ele>192.88</ele>
        <time>2015-07-11T20:27:03Z</time>
      </trkpt>
      <trkpt lat="50.22409" lon="4.15386">
        <ele>192.88</ele>
        <time>2015-07-11T20:27:04Z</time>
      </trkpt>
      <trkpt lat="50.22403" lon="4.15391">
        <ele>192.88</ele>
        <time>2015-07-11T20:27:05Z</time>
      </trkpt>
      <trkpt lat="50.22398" lon="4.15397">
        <ele>192.88</ele>
        <time>2015-07-11T20:27:06Z</time>
      </trkpt>
      <trkpt lat="50.22394" lon="4.15402">
        <ele>192.88</ele>
        <time>2015-07-11T20:27:07Z</time>
      </trkpt>
      <trkpt lat="50.22377" lon="4.15429">
        <ele>192.88</ele>
        <time>2015-07-11T20:27:12Z</time>
      </trkpt>
      <trkpt lat="50.22373" lon="4.15431">
        <ele>193.84</ele>
        <time>2015-07-11T20:27:13Z</time>
      </trkpt>
      <trkpt lat="50.22371" lon="4.15431">
        <ele>193.84</ele>
        <time>2015-07-11T20:27:14Z</time>
      </trkpt>
      <trkpt lat="50.22369" lon="4.15434">
        <ele>194.8</ele>
        <time>2015-07-11T20:27:19Z</time>
      </trkpt>
      <trkpt lat="50.22369" lon="4.15436">
        <ele>194.8</ele>
        <time>2015-07-11T20:27:20Z</time>
      </trkpt>
      <trkpt lat="50.22369" lon="4.15439">
        <ele>194.32</ele>
        <time>2015-07-11T20:27:21Z</time>
      </trkpt>
      <trkpt lat="50.2237" lon="4.15441">
        <ele>194.8</ele>
        <time>2015-07-11T20:27:22Z</time>
      </trkpt>
      <trkpt lat="50.22371" lon="4.15443">
        <ele>194.32</ele>
        <time>2015-07-11T20:27:23Z</time>
      </trkpt>
      <trkpt lat="50.22394" lon="4.15489">
        <ele>196.25</ele>
        <time>2015-07-11T20:27:34Z</time>
      </trkpt>
      <trkpt lat="50.22417" lon="4.15534">
        <ele>199.61</ele>
        <time>2015-07-11T20:27:46Z</time>
      </trkpt>
      <trkpt lat="50.22446" lon="4.15565">
        <ele>202.01</ele>
        <time>2015-07-11T20:27:59Z</time>
      </trkpt>
      <trkpt lat="50.22487" lon="4.15608">
        <ele>204.42</ele>
        <time>2015-07-11T20:28:16Z</time>
      </trkpt>
      <trkpt lat="50.22516" lon="4.15634">
        <ele>204.9</ele>
        <time>2015-07-11T20:28:28Z</time>
      </trkpt>
      <trkpt lat="50.2255" lon="4.15663">
        <ele>206.34</ele>
        <time>2015-07-11T20:28:41Z</time>
      </trkpt>
      <trkpt lat="50.22602" lon="4.15694">
        <ele>207.78</ele>
        <time>2015-07-11T20:28:57Z</time>
      </trkpt>
      <trkpt lat="50.22656" lon="4.15719">
        <ele>208.26</ele>
        <time>2015-07-11T20:29:12Z</time>
      </trkpt>
      <trkpt lat="50.2266" lon="4.15721">
        <ele>208.26</ele>
        <time>2015-07-11T20:29:13Z</time>
      </trkpt>
      <trkpt lat="50.22663" lon="4.15723">
        <ele>208.26</ele>
        <time>2015-07-11T20:29:14Z</time>
      </trkpt>
      <trkpt lat="50.22702" lon="4.1576">
        <ele>208.26</ele>
        <time>2015-07-11T20:29:26Z</time>
      </trkpt>
      <trkpt lat="50.22745" lon="4.1581">
        <ele>208.26</ele>
        <time>2015-07-11T20:29:38Z</time>
      </trkpt>
      <trkpt lat="50.22766" lon="4.15847">
        <ele>206.82</ele>
        <time>2015-07-11T20:29:45Z</time>
      </trkpt>
      <trkpt lat="50.22771" lon="4.15859">
        <ele>206.34</ele>
        <time>2015-07-11T20:29:47Z</time>
      </trkpt>
      <trkpt lat="50.22774" lon="4.15864">
        <ele>206.34</ele>
        <time>2015-07-11T20:29:48Z</time>
      </trkpt>
      <trkpt lat="50.22778" lon="4.1587">
        <ele>206.34</ele>
        <time>2015-07-11T20:29:49Z</time>
      </trkpt>
      <trkpt lat="50.22781" lon="4.15876">
        <ele>206.34</ele>
        <time>2015-07-11T20:29:50Z</time>
      </trkpt>
      <trkpt lat="50.22785" lon="4.15881">
        <ele>205.86</ele>
        <time>2015-07-11T20:29:51Z</time>
      </trkpt>
      <trkpt lat="50.22818" lon="4.1593">
        <ele>203.94</ele>
        <time>2015-07-11T20:30:00Z</time>
      </trkpt>
      <trkpt lat="50.22855" lon="4.15989">
        <ele>200.57</ele>
        <time>2015-07-11T20:30:09Z</time>
      </trkpt>
      <trkpt lat="50.2288" lon="4.16032">
        <ele>198.17</ele>
        <time>2015-07-11T20:30:15Z</time>
      </trkpt>
      <trkpt lat="50.22899" lon="4.16064">
        <ele>195.28</ele>
        <time>2015-07-11T20:30:20Z</time>
      </trkpt>
      <trkpt lat="50.22901" lon="4.16072">
        <ele>194.8</ele>
        <time>2015-07-11T20:30:21Z</time>
      </trkpt>
      <trkpt lat="50.22903" lon="4.16079">
        <ele>194.8</ele>
        <time>2015-07-11T20:30:22Z</time>
      </trkpt>
      <trkpt lat="50.22904" lon="4.16086">
        <ele>194.32</ele>
        <time>2015-07-11T20:30:23Z</time>
      </trkpt>
      <trkpt lat="50.22904" lon="4.16093">
        <ele>194.32</ele>
        <time>2015-07-11T20:30:24Z</time>
      </trkpt>
      <trkpt lat="50.22904" lon="4.161">
        <ele>194.32</ele>
        <time>2015-07-11T20:30:25Z</time>
      </trkpt>
      <trkpt lat="50.22903" lon="4.16107">
        <ele>193.36</ele>
        <time>2015-07-11T20:30:26Z</time>
      </trkpt>
      <trkpt lat="50.22898" lon="4.16161">
        <ele>192.88</ele>
        <time>2015-07-11T20:30:33Z</time>
      </trkpt>
      <trkpt lat="50.22898" lon="4.16167">
        <ele>192.4</ele>
        <time>2015-07-11T20:30:34Z</time>
      </trkpt>
      <trkpt lat="50.22898" lon="4.16173">
        <ele>192.88</ele>
        <time>2015-07-11T20:30:35Z</time>
      </trkpt>
      <trkpt lat="50.22897" lon="4.16177">
        <ele>192.4</ele>
        <time>2015-07-11T20:30:36Z</time>
      </trkpt>
      <trkpt lat="50.22896" lon="4.1618">
        <ele>192.88</ele>
        <time>2015-07-11T20:30:37Z</time>
      </trkpt>
      <trkpt lat="50.22895" lon="4.16182">
        <ele>192.88</ele>
        <time>2015-07-11T20:30:38Z</time>
      </trkpt>
      <trkpt lat="50.22893" lon="4.16181">
        <ele>192.4</ele>
        <time>2015-07-11T20:30:39Z</time>
      </trkpt>
      <trkpt lat="50.22891" lon="4.1618">
        <ele>192.88</ele>
        <time>2015-07-11T20:30:40Z</time>
      </trkpt>
      <trkpt lat="50.22875" lon="4.16179">
        <ele>193.84</ele>
        <time>2015-07-11T20:30:46Z</time>
      </trkpt>
      <trkpt lat="50.22868" lon="4.16187">
        <ele>195.28</ele>
        <time>2015-07-11T20:30:55Z</time>
      </trkpt>
      <trkpt lat="50.22855" lon="4.16219">
        <ele>197.21</ele>
        <time>2015-07-11T20:31:12Z</time>
      </trkpt>
      <trkpt lat="50.22832" lon="4.1625">
        <ele>198.65</ele>
        <time>2015-07-11T20:31:25Z</time>
      </trkpt>
      <trkpt lat="50.22812" lon="4.16277">
        <ele>199.61</ele>
        <time>2015-07-11T20:31:36Z</time>
      </trkpt>
      <trkpt lat="50.2278" lon="4.16301">
        <ele>201.05</ele>
        <time>2015-07-11T20:31:49Z</time>
      </trkpt>
      <trkpt lat="50.22751" lon="4.16321">
        <ele>202.49</ele>
        <time>2015-07-11T20:32:03Z</time>
      </trkpt>
      <trkpt lat="50.22713" lon="4.16343">
        <ele>202.98</ele>
        <time>2015-07-11T20:32:17Z</time>
      </trkpt>
      <trkpt lat="50.22671" lon="4.16364">
        <ele>205.38</ele>
        <time>2015-07-11T20:32:32Z</time>
      </trkpt>
      <trkpt lat="50.2264" lon="4.16378">
        <ele>207.3</ele>
        <time>2015-07-11T20:32:47Z</time>
      </trkpt>
      <trkpt lat="50.2261" lon="4.1639">
        <ele>207.3</ele>
        <time>2015-07-11T20:33:00Z</time>
      </trkpt>
      <trkpt lat="50.22556" lon="4.164">
        <ele>207.3</ele>
        <time>2015-07-11T20:33:16Z</time>
      </trkpt>
      <trkpt lat="50.22515" lon="4.16398">
        <ele>205.38</ele>
        <time>2015-07-11T20:33:27Z</time>
      </trkpt>
      <trkpt lat="50.2246" lon="4.16404">
        <ele>203.46</ele>
        <time>2015-07-11T20:33:40Z</time>
      </trkpt>
      <trkpt lat="50.22458" lon="4.16408">
        <ele>202.98</ele>
        <time>2015-07-11T20:33:41Z</time>
      </trkpt>
      <trkpt lat="50.22457" lon="4.16414">
        <ele>202.98</ele>
        <time>2015-07-11T20:33:42Z</time>
      </trkpt>
      <trkpt lat="50.22457" lon="4.16418">
        <ele>202.98</ele>
        <time>2015-07-11T20:33:43Z</time>
      </trkpt>
      <trkpt lat="50.22457" lon="4.16423">
        <ele>202.98</ele>
        <time>2015-07-11T20:33:44Z</time>
      </trkpt>
      <trkpt lat="50.2246" lon="4.16515">
        <ele>202.98</ele>
        <time>2015-07-11T20:34:00Z</time>
      </trkpt>
      <trkpt lat="50.22464" lon="4.16581">
        <ele>204.42</ele>
        <time>2015-07-11T20:34:11Z</time>
      </trkpt>
      <trkpt lat="50.22473" lon="4.16642">
        <ele>202.98</ele>
        <time>2015-07-11T20:34:21Z</time>
      </trkpt>
      <trkpt lat="50.22475" lon="4.16648">
        <ele>203.46</ele>
        <time>2015-07-11T20:34:22Z</time>
      </trkpt>
      <trkpt lat="50.22511" lon="4.16691">
        <ele>204.42</ele>
        <time>2015-07-11T20:34:33Z</time>
      </trkpt>
      <trkpt lat="50.22512" lon="4.16692">
        <ele>204.42</ele>
        <time>2015-07-11T20:34:34Z</time>
      </trkpt>
      <trkpt lat="50.22513" lon="4.16693">
        <ele>204.42</ele>
        <time>2015-07-11T20:34:35Z</time>
      </trkpt>
      <trkpt lat="50.22514" lon="4.16692">
        <ele>204.42</ele>
        <time>2015-07-11T20:34:36Z</time>
      </trkpt>
      <trkpt lat="50.22514" lon="4.1669">
        <ele>204.42</ele>
        <time>2015-07-11T20:34:37Z</time>
      </trkpt>
      <trkpt lat="50.22512" lon="4.16689">
        <ele>204.42</ele>
        <time>2015-07-11T20:34:38Z</time>
      </trkpt>
      <trkpt lat="50.2251" lon="4.16689">
        <ele>204.42</ele>
        <time>2015-07-11T20:34:39Z</time>
      </trkpt>
      <trkpt lat="50.22509" lon="4.16689">
        <ele>204.42</ele>
        <time>2015-07-11T20:34:40Z</time>
      </trkpt>
      <trkpt lat="50.22507" lon="4.16691">
        <ele>204.42</ele>
        <time>2015-07-11T20:34:41Z</time>
      </trkpt>
      <trkpt lat="50.22505" lon="4.16695">
        <ele>204.9</ele>
        <time>2015-07-11T20:34:42Z</time>
      </trkpt>
      <trkpt lat="50.22504" lon="4.16697">
        <ele>204.9</ele>
        <time>2015-07-11T20:34:43Z</time>
      </trkpt>
      <trkpt lat="50.2249" lon="4.1674">
        <ele>206.34</ele>
        <time>2015-07-11T20:34:55Z</time>
      </trkpt>
      <trkpt lat="50.22473" lon="4.16806">
        <ele>207.78</ele>
        <time>2015-07-11T20:35:09Z</time>
      </trkpt>
      <trkpt lat="50.2246" lon="4.1687">
        <ele>208.74</ele>
        <time>2015-07-11T20:35:22Z</time>
      </trkpt>
      <trkpt lat="50.2245" lon="4.16935">
        <ele>208.74</ele>
        <time>2015-07-11T20:35:35Z</time>
      </trkpt>
      <trkpt lat="50.22449" lon="4.17013">
        <ele>209.22</ele>
        <time>2015-07-11T20:35:50Z</time>
      </trkpt>
      <trkpt lat="50.22469" lon="4.17076">
        <ele>209.7</ele>
        <time>2015-07-11T20:36:03Z</time>
      </trkpt>
      <trkpt lat="50.22506" lon="4.17146">
        <ele>209.7</ele>
        <time>2015-07-11T20:36:19Z</time>
      </trkpt>
      <trkpt lat="50.22538" lon="4.17203">
        <ele>210.19</ele>
        <time>2015-07-11T20:36:31Z</time>
      </trkpt>
      <trkpt lat="50.2254" lon="4.17209">
        <ele>210.19</ele>
        <time>2015-07-11T20:36:32Z</time>
      </trkpt>
      <trkpt lat="50.22541" lon="4.17216">
        <ele>210.19</ele>
        <time>2015-07-11T20:36:33Z</time>
      </trkpt>
      <trkpt lat="50.22541" lon="4.17222">
        <ele>210.67</ele>
        <time>2015-07-11T20:36:34Z</time>
      </trkpt>
      <trkpt lat="50.22542" lon="4.17227">
        <ele>210.67</ele>
        <time>2015-07-11T20:36:35Z</time>
      </trkpt>
      <trkpt lat="50.22542" lon="4.17233">
        <ele>210.67</ele>
        <time>2015-07-11T20:36:36Z</time>
      </trkpt>
      <trkpt lat="50.22548" lon="4.17334">
        <ele>211.15</ele>
        <time>2015-07-11T20:36:51Z</time>
      </trkpt>
      <trkpt lat="50.22561" lon="4.17421">
        <ele>211.63</ele>
        <time>2015-07-11T20:37:04Z</time>
      </trkpt>
      <trkpt lat="50.22591" lon="4.17532">
        <ele>212.59</ele>
        <time>2015-07-11T20:37:18Z</time>
      </trkpt>
      <trkpt lat="50.22615" lon="4.17622">
        <ele>213.55</ele>
        <time>2015-07-11T20:37:33Z</time>
      </trkpt>
      <trkpt lat="50.22636" lon="4.17699">
        <ele>214.03</ele>
        <time>2015-07-11T20:37:48Z</time>
      </trkpt>
      <trkpt lat="50.22636" lon="4.17703">
        <ele>214.03</ele>
        <time>2015-07-11T20:37:49Z</time>
      </trkpt>
      <trkpt lat="50.22634" lon="4.17706">
        <ele>214.03</ele>
        <time>2015-07-11T20:37:50Z</time>
      </trkpt>
      <trkpt lat="50.22593" lon="4.17754">
        <ele>214.03</ele>
        <time>2015-07-11T20:38:04Z</time>
      </trkpt>
      <trkpt lat="50.22552" lon="4.178">
        <ele>212.59</ele>
        <time>2015-07-11T20:38:16Z</time>
      </trkpt>
      <trkpt lat="50.22508" lon="4.17845">
        <ele>213.07</ele>
        <time>2015-07-11T20:38:28Z</time>
      </trkpt>
      <trkpt lat="50.22492" lon="4.17858">
        <ele>212.59</ele>
        <time>2015-07-11T20:38:32Z</time>
      </trkpt>
      <trkpt lat="50.22487" lon="4.1786">
        <ele>212.59</ele>
        <time>2015-07-11T20:38:33Z</time>
      </trkpt>
      <trkpt lat="50.22484" lon="4.17861">
        <ele>212.59</ele>
        <time>2015-07-11T20:38:34Z</time>
      </trkpt>
      <trkpt lat="50.22482" lon="4.1786">
        <ele>212.59</ele>
        <time>2015-07-11T20:38:35Z</time>
      </trkpt>
      <trkpt lat="50.22481" lon="4.17859">
        <ele>212.59</ele>
        <time>2015-07-11T20:38:39Z</time>
      </trkpt>
      <trkpt lat="50.22483" lon="4.1786">
        <ele>212.59</ele>
        <time>2015-07-11T20:38:40Z</time>
      </trkpt>
      <trkpt lat="50.22484" lon="4.17861">
        <ele>212.59</ele>
        <time>2015-07-11T20:38:41Z</time>
      </trkpt>
      <trkpt lat="50.22485" lon="4.17862">
        <ele>212.59</ele>
        <time>2015-07-11T20:38:42Z</time>
      </trkpt>
      <trkpt lat="50.22487" lon="4.17863">
        <ele>212.59</ele>
        <time>2015-07-11T20:38:43Z</time>
      </trkpt>
      <trkpt lat="50.22488" lon="4.17862">
        <ele>212.59</ele>
        <time>2015-07-11T20:38:46Z</time>
      </trkpt>
      <trkpt lat="50.22487" lon="4.17861">
        <ele>212.59</ele>
        <time>2015-07-11T20:38:47Z</time>
      </trkpt>
      <trkpt lat="50.22485" lon="4.1786">
        <ele>212.59</ele>
        <time>2015-07-11T20:38:48Z</time>
      </trkpt>
      <trkpt lat="50.22483" lon="4.1786">
        <ele>212.59</ele>
        <time>2015-07-11T20:38:49Z</time>
      </trkpt>
      <trkpt lat="50.22481" lon="4.17861">
        <ele>212.59</ele>
        <time>2015-07-11T20:38:50Z</time>
      </trkpt>
      <trkpt lat="50.22479" lon="4.1786">
        <ele>212.59</ele>
        <time>2015-07-11T20:38:51Z</time>
      </trkpt>
      <trkpt lat="50.22477" lon="4.17859">
        <ele>212.59</ele>
        <time>2015-07-11T20:38:52Z</time>
      </trkpt>
      <trkpt lat="50.2244" lon="4.17867">
        <ele>211.15</ele>
        <time>2015-07-11T20:39:02Z</time>
      </trkpt>
      <trkpt lat="50.22405" lon="4.17871">
        <ele>209.22</ele>
        <time>2015-07-11T20:39:08Z</time>
      </trkpt>
      <trkpt lat="50.22399" lon="4.17871">
        <ele>209.22</ele>
        <time>2015-07-11T20:39:09Z</time>
      </trkpt>
      <trkpt lat="50.22392" lon="4.17869">
        <ele>209.22</ele>
        <time>2015-07-11T20:39:10Z</time>
      </trkpt>
      <trkpt lat="50.22386" lon="4.17866">
        <ele>208.74</ele>
        <time>2015-07-11T20:39:11Z</time>
      </trkpt>
      <trkpt lat="50.2238" lon="4.17863">
        <ele>208.74</ele>
        <time>2015-07-11T20:39:12Z</time>
      </trkpt>
      <trkpt lat="50.22313" lon="4.17818">
        <ele>206.82</ele>
        <time>2015-07-11T20:39:24Z</time>
      </trkpt>
      <trkpt lat="50.22307" lon="4.17814">
        <ele>206.82</ele>
        <time>2015-07-11T20:39:25Z</time>
      </trkpt>
      <trkpt lat="50.22239" lon="4.1777">
        <ele>206.34</ele>
        <time>2015-07-11T20:39:38Z</time>
      </trkpt>
      <trkpt lat="50.22196" lon="4.17751">
        <ele>206.34</ele>
        <time>2015-07-11T20:39:46Z</time>
      </trkpt>
      <trkpt lat="50.2219" lon="4.1775">
        <ele>206.34</ele>
        <time>2015-07-11T20:39:47Z</time>
      </trkpt>
      <trkpt lat="50.22184" lon="4.17748">
        <ele>206.34</ele>
        <time>2015-07-11T20:39:48Z</time>
      </trkpt>
      <trkpt lat="50.22085" lon="4.17725">
        <ele>208.74</ele>
        <time>2015-07-11T20:40:05Z</time>
      </trkpt>
      <trkpt lat="50.22018" lon="4.17733">
        <ele>210.19</ele>
        <time>2015-07-11T20:40:18Z</time>
      </trkpt>
      <trkpt lat="50.22014" lon="4.17733">
        <ele>210.67</ele>
        <time>2015-07-11T20:40:19Z</time>
      </trkpt>
      <trkpt lat="50.22009" lon="4.17733">
        <ele>210.67</ele>
        <time>2015-07-11T20:40:20Z</time>
      </trkpt>
      <trkpt lat="50.21996" lon="4.17729">
        <ele>211.63</ele>
        <time>2015-07-11T20:40:24Z</time>
      </trkpt>
      <trkpt lat="50.21995" lon="4.17726">
        <ele>211.63</ele>
        <time>2015-07-11T20:40:25Z</time>
      </trkpt>
      <trkpt lat="50.21995" lon="4.17717">
        <ele>211.63</ele>
        <time>2015-07-11T20:40:29Z</time>
      </trkpt>
      <trkpt lat="50.22008" lon="4.17673">
        <ele>212.59</ele>
        <time>2015-07-11T20:40:40Z</time>
      </trkpt>
      <trkpt lat="50.22005" lon="4.17631">
        <ele>213.07</ele>
        <time>2015-07-11T20:40:48Z</time>
      </trkpt>
      <trkpt lat="50.21998" lon="4.17609">
        <ele>213.55</ele>
        <time>2015-07-11T20:41:03Z</time>
      </trkpt>
      <trkpt lat="50.21988" lon="4.17539">
        <ele>214.51</ele>
        <time>2015-07-11T20:41:16Z</time>
      </trkpt>
      <trkpt lat="50.21988" lon="4.17519">
        <ele>214.99</ele>
        <time>2015-07-11T20:41:20Z</time>
      </trkpt>
      <trkpt lat="50.22" lon="4.17501">
        <ele>214.99</ele>
        <time>2015-07-11T20:41:28Z</time>
      </trkpt>
      <trkpt lat="50.22015" lon="4.17449">
        <ele>214.99</ele>
        <time>2015-07-11T20:41:38Z</time>
      </trkpt>
      <trkpt lat="50.22022" lon="4.17428">
        <ele>213.55</ele>
        <time>2015-07-11T20:41:41Z</time>
      </trkpt>
      <trkpt lat="50.22027" lon="4.17387">
        <ele>213.55</ele>
        <time>2015-07-11T20:41:46Z</time>
      </trkpt>
      <trkpt lat="50.22031" lon="4.17351">
        <ele>213.07</ele>
        <time>2015-07-11T20:41:50Z</time>
      </trkpt>
      <trkpt lat="50.22032" lon="4.17306">
        <ele>213.07</ele>
        <time>2015-07-11T20:41:55Z</time>
      </trkpt>
      <trkpt lat="50.22036" lon="4.17279">
        <ele>213.07</ele>
        <time>2015-07-11T20:41:58Z</time>
      </trkpt>
      <trkpt lat="50.22038" lon="4.17245">
        <ele>213.07</ele>
        <time>2015-07-11T20:42:02Z</time>
      </trkpt>
      <trkpt lat="50.22043" lon="4.17215">
        <ele>213.07</ele>
        <time>2015-07-11T20:42:06Z</time>
      </trkpt>
      <trkpt lat="50.22047" lon="4.17199">
        <ele>213.07</ele>
        <time>2015-07-11T20:42:08Z</time>
      </trkpt>
      <trkpt lat="50.22054" lon="4.17175">
        <ele>212.11</ele>
        <time>2015-07-11T20:42:11Z</time>
      </trkpt>
      <trkpt lat="50.22064" lon="4.17135">
        <ele>211.15</ele>
        <time>2015-07-11T20:42:16Z</time>
      </trkpt>
      <trkpt lat="50.22059" lon="4.17058">
        <ele>210.67</ele>
        <time>2015-07-11T20:42:25Z</time>
      </trkpt>
      <trkpt lat="50.22057" lon="4.17051">
        <ele>210.67</ele>
        <time>2015-07-11T20:42:26Z</time>
      </trkpt>
      <trkpt lat="50.22049" lon="4.17015">
        <ele>209.7</ele>
        <time>2015-07-11T20:42:35Z</time>
      </trkpt>
      <trkpt lat="50.22045" lon="4.16988">
        <ele>209.7</ele>
        <time>2015-07-11T20:42:48Z</time>
      </trkpt>
      <trkpt lat="50.2204" lon="4.16945">
        <ele>209.7</ele>
        <time>2015-07-11T20:43:01Z</time>
      </trkpt>
      <trkpt lat="50.2204" lon="4.16916">
        <ele>209.7</ele>
        <time>2015-07-11T20:43:08Z</time>
      </trkpt>
      <trkpt lat="50.22065" lon="4.16856">
        <ele>208.26</ele>
        <time>2015-07-11T20:43:21Z</time>
      </trkpt>
      <trkpt lat="50.22075" lon="4.16844">
        <ele>207.78</ele>
        <time>2015-07-11T20:43:24Z</time>
      </trkpt>
      <trkpt lat="50.22089" lon="4.16827">
        <ele>206.82</ele>
        <time>2015-07-11T20:43:28Z</time>
      </trkpt>
      <trkpt lat="50.22107" lon="4.16815">
        <ele>205.86</ele>
        <time>2015-07-11T20:43:32Z</time>
      </trkpt>
      <trkpt lat="50.22129" lon="4.16794">
        <ele>203.94</ele>
        <time>2015-07-11T20:43:37Z</time>
      </trkpt>
      <trkpt lat="50.2215" lon="4.16775">
        <ele>203.46</ele>
        <time>2015-07-11T20:43:42Z</time>
      </trkpt>
      <trkpt lat="50.22164" lon="4.16761">
        <ele>202.49</ele>
        <time>2015-07-11T20:43:46Z</time>
      </trkpt>
      <trkpt lat="50.22175" lon="4.16734">
        <ele>202.01</ele>
        <time>2015-07-11T20:43:50Z</time>
      </trkpt>
      <trkpt lat="50.22181" lon="4.16721">
        <ele>201.05</ele>
        <time>2015-07-11T20:43:52Z</time>
      </trkpt>
      <trkpt lat="50.22207" lon="4.16673">
        <ele>199.61</ele>
        <time>2015-07-11T20:44:00Z</time>
      </trkpt>
      <trkpt lat="50.22226" lon="4.16585">
        <ele>196.73</ele>
        <time>2015-07-11T20:44:11Z</time>
      </trkpt>
      <trkpt lat="50.22233" lon="4.16548">
        <ele>195.77</ele>
        <time>2015-07-11T20:44:16Z</time>
      </trkpt>
      <trkpt lat="50.22244" lon="4.16526">
        <ele>195.77</ele>
        <time>2015-07-11T20:44:21Z</time>
      </trkpt>
      <trkpt lat="50.22248" lon="4.16523">
        <ele>195.28</ele>
        <time>2015-07-11T20:44:22Z</time>
      </trkpt>
      <trkpt lat="50.22251" lon="4.16521">
        <ele>195.28</ele>
        <time>2015-07-11T20:44:23Z</time>
      </trkpt>
      <trkpt lat="50.22271" lon="4.16515">
        <ele>194.8</ele>
        <time>2015-07-11T20:44:32Z</time>
      </trkpt>
      <trkpt lat="50.22302" lon="4.16534">
        <ele>194.8</ele>
        <time>2015-07-11T20:44:44Z</time>
      </trkpt>
      <trkpt lat="50.22305" lon="4.16534">
        <ele>194.8</ele>
        <time>2015-07-11T20:44:45Z</time>
      </trkpt>
      <trkpt lat="50.22308" lon="4.1653">
        <ele>194.8</ele>
        <time>2015-07-11T20:44:46Z</time>
      </trkpt>
      <trkpt lat="50.2231" lon="4.16526">
        <ele>194.8</ele>
        <time>2015-07-11T20:44:47Z</time>
      </trkpt>
      <trkpt lat="50.22311" lon="4.16522">
        <ele>194.8</ele>
        <time>2015-07-11T20:44:48Z</time>
      </trkpt>
      <trkpt lat="50.22312" lon="4.16518">
        <ele>194.8</ele>
        <time>2015-07-11T20:44:49Z</time>
      </trkpt>
      <trkpt lat="50.22313" lon="4.16514">
        <ele>194.8</ele>
        <time>2015-07-11T20:44:50Z</time>
      </trkpt>
      <trkpt lat="50.22314" lon="4.1651">
        <ele>194.8</ele>
        <time>2015-07-11T20:44:51Z</time>
      </trkpt>
      <trkpt lat="50.22317" lon="4.16501">
        <ele>196.25</ele>
        <time>2015-07-11T20:44:54Z</time>
      </trkpt>
      <trkpt lat="50.22326" lon="4.16467">
        <ele>199.13</ele>
        <time>2015-07-11T20:45:07Z</time>
      </trkpt>
      <trkpt lat="50.22322" lon="4.16432">
        <ele>197.69</ele>
        <time>2015-07-11T20:45:21Z</time>
      </trkpt>
      <trkpt lat="50.22324" lon="4.16418">
        <ele>197.21</ele>
        <time>2015-07-11T20:45:34Z</time>
      </trkpt>
      <trkpt lat="50.22324" lon="4.16415">
        <ele>198.17</ele>
        <time>2015-07-11T20:45:40Z</time>
      </trkpt>
      <trkpt lat="50.22325" lon="4.16413">
        <ele>198.17</ele>
        <time>2015-07-11T20:45:41Z</time>
      </trkpt>
      <trkpt lat="50.22329" lon="4.1639">
        <ele>198.17</ele>
        <time>2015-07-11T20:45:49Z</time>
      </trkpt>
      <trkpt lat="50.22329" lon="4.16386">
        <ele>198.17</ele>
        <time>2015-07-11T20:45:50Z</time>
      </trkpt>
      <trkpt lat="50.22329" lon="4.16369">
        <ele>198.17</ele>
        <time>2015-07-11T20:45:54Z</time>
      </trkpt>
      <trkpt lat="50.22337" lon="4.16344">
        <ele>198.17</ele>
        <time>2015-07-11T20:46:02Z</time>
      </trkpt>
      <trkpt lat="50.22336" lon="4.16336">
        <ele>198.17</ele>
        <time>2015-07-11T20:46:06Z</time>
      </trkpt>
      <trkpt lat="50.22337" lon="4.16329">
        <ele>196.73</ele>
        <time>2015-07-11T20:46:09Z</time>
      </trkpt>
      <trkpt lat="50.22337" lon="4.1632">
        <ele>195.77</ele>
        <time>2015-07-11T20:46:13Z</time>
      </trkpt>
      <trkpt lat="50.22328" lon="4.16303">
        <ele>191.92</ele>
        <time>2015-07-11T20:46:21Z</time>
      </trkpt>
      <trkpt lat="50.22322" lon="4.16296">
        <ele>189.04</ele>
        <time>2015-07-11T20:46:25Z</time>
      </trkpt>
      <trkpt lat="50.22318" lon="4.16294">
        <ele>188.56</ele>
        <time>2015-07-11T20:46:27Z</time>
      </trkpt>
      <trkpt lat="50.22312" lon="4.16295">
        <ele>188.08</ele>
        <time>2015-07-11T20:46:30Z</time>
      </trkpt>
      <trkpt lat="50.22312" lon="4.16298">
        <ele>187.59</ele>
        <time>2015-07-11T20:46:31Z</time>
      </trkpt>
      <trkpt lat="50.22312" lon="4.16302">
        <ele>187.59</ele>
        <time>2015-07-11T20:46:32Z</time>
      </trkpt>
      <trkpt lat="50.22311" lon="4.16306">
        <ele>187.59</ele>
        <time>2015-07-11T20:46:33Z</time>
      </trkpt>
      <trkpt lat="50.22311" lon="4.1631">
        <ele>187.59</ele>
        <time>2015-07-11T20:46:34Z</time>
      </trkpt>
      <trkpt lat="50.2231" lon="4.16314">
        <ele>187.59</ele>
        <time>2015-07-11T20:46:35Z</time>
      </trkpt>
      <trkpt lat="50.2231" lon="4.16316">
        <ele>188.08</ele>
        <time>2015-07-11T20:46:36Z</time>
      </trkpt>
      <trkpt lat="50.22311" lon="4.16319">
        <ele>188.08</ele>
        <time>2015-07-11T20:46:37Z</time>
      </trkpt>
      <trkpt lat="50.22308" lon="4.16346">
        <ele>188.08</ele>
        <time>2015-07-11T20:46:47Z</time>
      </trkpt>
      <trkpt lat="50.22307" lon="4.16347">
        <ele>188.08</ele>
        <time>2015-07-11T20:46:48Z</time>
      </trkpt>
      <trkpt lat="50.22305" lon="4.16348">
        <ele>188.08</ele>
        <time>2015-07-11T20:46:49Z</time>
      </trkpt>
      <trkpt lat="50.22304" lon="4.16348">
        <ele>188.08</ele>
        <time>2015-07-11T20:46:50Z</time>
      </trkpt>
      <trkpt lat="50.22303" lon="4.16347">
        <ele>188.08</ele>
        <time>2015-07-11T20:46:51Z</time>
      </trkpt>
      <trkpt lat="50.22301" lon="4.16346">
        <ele>188.08</ele>
        <time>2015-07-11T20:46:52Z</time>
      </trkpt>
      <trkpt lat="50.22299" lon="4.16346">
        <ele>188.08</ele>
        <time>2015-07-11T20:46:53Z</time>
      </trkpt>
      <trkpt lat="50.22298" lon="4.16347">
        <ele>188.08</ele>
        <time>2015-07-11T20:46:54Z</time>
      </trkpt>
      <trkpt lat="50.22296" lon="4.16349">
        <ele>188.08</ele>
        <time>2015-07-11T20:46:55Z</time>
      </trkpt>
      <trkpt lat="50.22295" lon="4.16351">
        <ele>189.52</ele>
        <time>2015-07-11T20:46:56Z</time>
      </trkpt>
      <trkpt lat="50.22295" lon="4.16352">
        <ele>189.52</ele>
        <time>2015-07-11T20:46:57Z</time>
      </trkpt>
      <trkpt lat="50.22289" lon="4.16363">
        <ele>190.96</ele>
        <time>2015-07-11T20:47:11Z</time>
      </trkpt>
      <trkpt lat="50.22284" lon="4.16394">
        <ele>191.44</ele>
        <time>2015-07-11T20:47:22Z</time>
      </trkpt>
      <trkpt lat="50.22281" lon="4.16419">
        <ele>191.92</ele>
        <time>2015-07-11T20:47:30Z</time>
      </trkpt>
      <trkpt lat="50.22277" lon="4.16423">
        <ele>193.36</ele>
        <time>2015-07-11T20:47:38Z</time>
      </trkpt>
      <trkpt lat="50.22267" lon="4.16423">
        <ele>194.32</ele>
        <time>2015-07-11T20:47:45Z</time>
      </trkpt>
      <trkpt lat="50.22259" lon="4.16418">
        <ele>194.32</ele>
        <time>2015-07-11T20:47:50Z</time>
      </trkpt>
      <trkpt lat="50.22254" lon="4.16412">
        <ele>194.32</ele>
        <time>2015-07-11T20:48:01Z</time>
      </trkpt>
      <trkpt lat="50.22254" lon="4.16411">
        <ele>194.32</ele>
        <time>2015-07-11T20:48:22Z</time>
      </trkpt>
      <trkpt lat="50.22244" lon="4.16371">
        <ele>194.32</ele>
        <time>2015-07-11T20:48:34Z</time>
      </trkpt>
      <trkpt lat="50.22223" lon="4.16318">
        <ele>194.32</ele>
        <time>2015-07-11T20:48:47Z</time>
      </trkpt>
      <trkpt lat="50.22209" lon="4.16265">
        <ele>193.36</ele>
        <time>2015-07-11T20:48:57Z</time>
      </trkpt>
      <trkpt lat="50.22207" lon="4.16254">
        <ele>192.88</ele>
        <time>2015-07-11T20:48:59Z</time>
      </trkpt>
      <trkpt lat="50.22206" lon="4.16248">
        <ele>192.4</ele>
        <time>2015-07-11T20:49:00Z</time>
      </trkpt>
      <trkpt lat="50.22206" lon="4.16243">
        <ele>192.4</ele>
        <time>2015-07-11T20:49:01Z</time>
      </trkpt>
      <trkpt lat="50.22206" lon="4.16238">
        <ele>191.92</ele>
        <time>2015-07-11T20:49:02Z</time>
      </trkpt>
      <trkpt lat="50.22205" lon="4.16234">
        <ele>191.92</ele>
        <time>2015-07-11T20:49:03Z</time>
      </trkpt>
      <trkpt lat="50.22193" lon="4.16228">
        <ele>190.96</ele>
        <time>2015-07-11T20:49:09Z</time>
      </trkpt>
      <trkpt lat="50.22176" lon="4.16222">
        <ele>192.4</ele>
        <time>2015-07-11T20:49:15Z</time>
      </trkpt>
      <trkpt lat="50.22144" lon="4.16215">
        <ele>194.32</ele>
        <time>2015-07-11T20:49:27Z</time>
      </trkpt>
      <trkpt lat="50.22114" lon="4.16207">
        <ele>197.21</ele>
        <time>2015-07-11T20:49:41Z</time>
      </trkpt>
      <trkpt lat="50.22103" lon="4.16206">
        <ele>197.21</ele>
        <time>2015-07-11T20:49:46Z</time>
      </trkpt>
      <trkpt lat="50.22087" lon="4.16211">
        <ele>194.8</ele>
        <time>2015-07-11T20:49:56Z</time>
      </trkpt>
      <trkpt lat="50.22078" lon="4.16217">
        <ele>193.36</ele>
        <time>2015-07-11T20:50:09Z</time>
      </trkpt>
      <trkpt lat="50.22073" lon="4.16218">
        <ele>192.88</ele>
        <time>2015-07-11T20:50:20Z</time>
      </trkpt>
      <trkpt lat="50.22067" lon="4.1621">
        <ele>194.32</ele>
        <time>2015-07-11T20:50:32Z</time>
      </trkpt>
      <trkpt lat="50.22067" lon="4.16204">
        <ele>194.8</ele>
        <time>2015-07-11T20:50:37Z</time>
      </trkpt>
      <trkpt lat="50.22067" lon="4.16199">
        <ele>195.28</ele>
        <time>2015-07-11T20:50:40Z</time>
      </trkpt>
      <trkpt lat="50.22064" lon="4.16191">
        <ele>197.21</ele>
        <time>2015-07-11T20:50:45Z</time>
      </trkpt>
      <trkpt lat="50.22052" lon="4.16181">
        <ele>199.61</ele>
        <time>2015-07-11T20:50:54Z</time>
      </trkpt>
      <trkpt lat="50.22039" lon="4.16177">
        <ele>201.53</ele>
        <time>2015-07-11T20:51:02Z</time>
      </trkpt>
      <trkpt lat="50.22027" lon="4.16174">
        <ele>202.49</ele>
        <time>2015-07-11T20:51:09Z</time>
      </trkpt>
      <trkpt lat="50.22003" lon="4.16163">
        <ele>203.94</ele>
        <time>2015-07-11T20:51:23Z</time>
      </trkpt>
      <trkpt lat="50.22002" lon="4.16163">
        <ele>203.94</ele>
        <time>2015-07-11T20:51:24Z</time>
      </trkpt>
      <trkpt lat="50.21989" lon="4.16159">
        <ele>205.38</ele>
        <time>2015-07-11T20:51:31Z</time>
      </trkpt>
      <trkpt lat="50.21975" lon="4.16157">
        <ele>206.34</ele>
        <time>2015-07-11T20:51:38Z</time>
      </trkpt>
      <trkpt lat="50.21968" lon="4.16153">
        <ele>206.34</ele>
        <time>2015-07-11T20:51:42Z</time>
      </trkpt>
      <trkpt lat="50.21958" lon="4.16151">
        <ele>206.82</ele>
        <time>2015-07-11T20:51:48Z</time>
      </trkpt>
      <trkpt lat="50.21941" lon="4.16146">
        <ele>207.78</ele>
        <time>2015-07-11T20:51:56Z</time>
      </trkpt>
      <trkpt lat="50.21922" lon="4.16141">
        <ele>208.74</ele>
        <time>2015-07-11T20:52:05Z</time>
      </trkpt>
      <trkpt lat="50.21916" lon="4.16134">
        <ele>208.74</ele>
        <time>2015-07-11T20:52:08Z</time>
      </trkpt>
      <trkpt lat="50.21894" lon="4.16135">
        <ele>209.7</ele>
        <time>2015-07-11T20:52:19Z</time>
      </trkpt>
      <trkpt lat="50.21881" lon="4.16134">
        <ele>210.67</ele>
        <time>2015-07-11T20:52:25Z</time>
      </trkpt>
      <trkpt lat="50.21876" lon="4.16131">
        <ele>210.67</ele>
        <time>2015-07-11T20:52:28Z</time>
      </trkpt>
      <trkpt lat="50.2187" lon="4.16123">
        <ele>210.67</ele>
        <time>2015-07-11T20:52:34Z</time>
      </trkpt>
      <trkpt lat="50.21873" lon="4.16114">
        <ele>210.67</ele>
        <time>2015-07-11T20:52:38Z</time>
      </trkpt>
      <trkpt lat="50.21878" lon="4.16101">
        <ele>209.22</ele>
        <time>2015-07-11T20:52:41Z</time>
      </trkpt>
      <trkpt lat="50.21887" lon="4.16048">
        <ele>207.3</ele>
        <time>2015-07-11T20:52:51Z</time>
      </trkpt>
      <trkpt lat="50.21886" lon="4.16039">
        <ele>206.82</ele>
        <time>2015-07-11T20:52:53Z</time>
      </trkpt>
      <trkpt lat="50.21901" lon="4.16024">
        <ele>205.38</ele>
        <time>2015-07-11T20:52:58Z</time>
      </trkpt>
      <trkpt lat="50.21927" lon="4.16022">
        <ele>204.9</ele>
        <time>2015-07-11T20:53:05Z</time>
      </trkpt>
      <trkpt lat="50.21936" lon="4.16008">
        <ele>204.42</ele>
        <time>2015-07-11T20:53:09Z</time>
      </trkpt>
      <trkpt lat="50.21943" lon="4.15996">
        <ele>203.94</ele>
        <time>2015-07-11T20:53:12Z</time>
      </trkpt>
      <trkpt lat="50.21957" lon="4.15952">
        <ele>202.49</ele>
        <time>2015-07-11T20:53:20Z</time>
      </trkpt>
      <trkpt lat="50.21947" lon="4.15852">
        <ele>200.09</ele>
        <time>2015-07-11T20:53:34Z</time>
      </trkpt>
      <trkpt lat="50.21943" lon="4.1582">
        <ele>199.13</ele>
        <time>2015-07-11T20:53:38Z</time>
      </trkpt>
      <trkpt lat="50.21936" lon="4.15791">
        <ele>197.69</ele>
        <time>2015-07-11T20:53:42Z</time>
      </trkpt>
      <trkpt lat="50.2193" lon="4.15758">
        <ele>196.25</ele>
        <time>2015-07-11T20:53:47Z</time>
      </trkpt>
      <trkpt lat="50.21919" lon="4.15751">
        <ele>194.8</ele>
        <time>2015-07-11T20:53:50Z</time>
      </trkpt>
      <trkpt lat="50.21896" lon="4.15746">
        <ele>191.44</ele>
        <time>2015-07-11T20:53:54Z</time>
      </trkpt>
      <trkpt lat="50.21886" lon="4.15744">
        <ele>190</ele>
        <time>2015-07-11T20:53:56Z</time>
      </trkpt>
      <trkpt lat="50.21875" lon="4.15755">
        <ele>191.44</ele>
        <time>2015-07-11T20:54:02Z</time>
      </trkpt>
      <trkpt lat="50.21867" lon="4.15759">
        <ele>193.84</ele>
        <time>2015-07-11T20:54:14Z</time>
      </trkpt>
      <trkpt lat="50.21866" lon="4.15759">
        <ele>193.84</ele>
        <time>2015-07-11T20:54:15Z</time>
      </trkpt>
      <trkpt lat="50.21856" lon="4.15764">
        <ele>196.73</ele>
        <time>2015-07-11T20:54:31Z</time>
      </trkpt>
      <trkpt lat="50.21841" lon="4.15768">
        <ele>199.61</ele>
        <time>2015-07-11T20:54:48Z</time>
      </trkpt>
      <trkpt lat="50.21827" lon="4.15775">
        <ele>201.53</ele>
        <time>2015-07-11T20:55:03Z</time>
      </trkpt>
      <trkpt lat="50.21818" lon="4.15778">
        <ele>202.49</ele>
        <time>2015-07-11T20:55:16Z</time>
      </trkpt>
      <trkpt lat="50.21816" lon="4.15779">
        <ele>202.98</ele>
        <time>2015-07-11T20:55:18Z</time>
      </trkpt>
      <trkpt lat="50.21809" lon="4.15783">
        <ele>203.46</ele>
        <time>2015-07-11T20:55:22Z</time>
      </trkpt>
      <trkpt lat="50.21773" lon="4.15799">
        <ele>206.82</ele>
        <time>2015-07-11T20:55:36Z</time>
      </trkpt>
      <trkpt lat="50.2175" lon="4.15807">
        <ele>207.3</ele>
        <time>2015-07-11T20:55:43Z</time>
      </trkpt>
      <trkpt lat="50.21738" lon="4.15803">
        <ele>207.78</ele>
        <time>2015-07-11T20:55:47Z</time>
      </trkpt>
      <trkpt lat="50.21713" lon="4.15754">
        <ele>206.34</ele>
        <time>2015-07-11T20:56:00Z</time>
      </trkpt>
      <trkpt lat="50.21701" lon="4.15712">
        <ele>205.38</ele>
        <time>2015-07-11T20:56:07Z</time>
      </trkpt>
      <trkpt lat="50.217" lon="4.15686">
        <ele>205.38</ele>
        <time>2015-07-11T20:56:11Z</time>
      </trkpt>
      <trkpt lat="50.21693" lon="4.15648">
        <ele>206.82</ele>
        <time>2015-07-11T20:56:18Z</time>
      </trkpt>
      <trkpt lat="50.2168" lon="4.15587">
        <ele>207.3</ele>
        <time>2015-07-11T20:56:30Z</time>
      </trkpt>
      <trkpt lat="50.21665" lon="4.15497">
        <ele>204.42</ele>
        <time>2015-07-11T20:56:43Z</time>
      </trkpt>
      <trkpt lat="50.21651" lon="4.1542">
        <ele>200.57</ele>
        <time>2015-07-11T20:56:51Z</time>
      </trkpt>
      <trkpt lat="50.21669" lon="4.15357">
        <ele>198.65</ele>
        <time>2015-07-11T20:57:00Z</time>
      </trkpt>
      <trkpt lat="50.21676" lon="4.15344">
        <ele>198.17</ele>
        <time>2015-07-11T20:57:03Z</time>
      </trkpt>
      <trkpt lat="50.21668" lon="4.15336">
        <ele>197.69</ele>
        <time>2015-07-11T20:57:09Z</time>
      </trkpt>
      <trkpt lat="50.21661" lon="4.15328">
        <ele>197.69</ele>
        <time>2015-07-11T20:57:16Z</time>
      </trkpt>
      <trkpt lat="50.2164" lon="4.1531">
        <ele>198.65</ele>
        <time>2015-07-11T20:57:27Z</time>
      </trkpt>
      <trkpt lat="50.21638" lon="4.15306">
        <ele>198.65</ele>
        <time>2015-07-11T20:57:28Z</time>
      </trkpt>
      <trkpt lat="50.21626" lon="4.15255">
        <ele>199.61</ele>
        <time>2015-07-11T20:57:40Z</time>
      </trkpt>
      <trkpt lat="50.21617" lon="4.15247">
        <ele>199.61</ele>
        <time>2015-07-11T20:57:44Z</time>
      </trkpt>
      <trkpt lat="50.21609" lon="4.15248">
        <ele>200.09</ele>
        <time>2015-07-11T20:57:48Z</time>
      </trkpt>
      <trkpt lat="50.21572" lon="4.15257">
        <ele>198.65</ele>
        <time>2015-07-11T20:58:01Z</time>
      </trkpt>
      <trkpt lat="50.21567" lon="4.15259">
        <ele>198.65</ele>
        <time>2015-07-11T20:58:02Z</time>
      </trkpt>
      <trkpt lat="50.21523" lon="4.15285">
        <ele>195.77</ele>
        <time>2015-07-11T20:58:14Z</time>
      </trkpt>
      <trkpt lat="50.21519" lon="4.15291">
        <ele>195.28</ele>
        <time>2015-07-11T20:58:16Z</time>
      </trkpt>
      <trkpt lat="50.21526" lon="4.15322">
        <ele>196.73</ele>
        <time>2015-07-11T20:58:24Z</time>
      </trkpt>
      <trkpt lat="50.21539" lon="4.15398">
        <ele>199.61</ele>
        <time>2015-07-11T20:58:40Z</time>
      </trkpt>
      <trkpt lat="50.21546" lon="4.1544">
        <ele>200.09</ele>
        <time>2015-07-11T20:58:50Z</time>
      </trkpt>
      <trkpt lat="50.21554" lon="4.15491">
        <ele>201.05</ele>
        <time>2015-07-11T20:59:04Z</time>
      </trkpt>
      <trkpt lat="50.21562" lon="4.1553">
        <ele>202.01</ele>
        <time>2015-07-11T20:59:15Z</time>
      </trkpt>
      <trkpt lat="50.21568" lon="4.15577">
        <ele>203.46</ele>
        <time>2015-07-11T20:59:30Z</time>
      </trkpt>
      <trkpt lat="50.21573" lon="4.15606">
        <ele>204.42</ele>
        <time>2015-07-11T20:59:40Z</time>
      </trkpt>
      <trkpt lat="50.21567" lon="4.15613">
        <ele>204.42</ele>
        <time>2015-07-11T20:59:45Z</time>
      </trkpt>
      <trkpt lat="50.21539" lon="4.15611">
        <ele>202.98</ele>
        <time>2015-07-11T20:59:55Z</time>
      </trkpt>
      <trkpt lat="50.2153" lon="4.15617">
        <ele>202.01</ele>
        <time>2015-07-11T20:59:58Z</time>
      </trkpt>
      <trkpt lat="50.21536" lon="4.15646">
        <ele>201.05</ele>
        <time>2015-07-11T21:00:07Z</time>
      </trkpt>
      <trkpt lat="50.21533" lon="4.1566">
        <ele>201.05</ele>
        <time>2015-07-11T21:00:11Z</time>
      </trkpt>
      <trkpt lat="50.21526" lon="4.15681">
        <ele>201.05</ele>
        <time>2015-07-11T21:00:18Z</time>
      </trkpt>
      <trkpt lat="50.21529" lon="4.15687">
        <ele>202.49</ele>
        <time>2015-07-11T21:00:21Z</time>
      </trkpt>
      <trkpt lat="50.21543" lon="4.157">
        <ele>205.38</ele>
        <time>2015-07-11T21:00:32Z</time>
      </trkpt>
      <trkpt lat="50.21556" lon="4.15715">
        <ele>207.3</ele>
        <time>2015-07-11T21:00:42Z</time>
      </trkpt>
      <trkpt lat="50.21565" lon="4.15719">
        <ele>207.78</ele>
        <time>2015-07-11T21:00:47Z</time>
      </trkpt>
      <trkpt lat="50.21583" lon="4.15724">
        <ele>207.78</ele>
        <time>2015-07-11T21:01:00Z</time>
      </trkpt>
      <trkpt lat="50.21589" lon="4.15724">
        <ele>207.78</ele>
        <time>2015-07-11T21:01:04Z</time>
      </trkpt>
      <trkpt lat="50.21597" lon="4.15744">
        <ele>207.78</ele>
        <time>2015-07-11T21:01:11Z</time>
      </trkpt>
      <trkpt lat="50.21606" lon="4.15795">
        <ele>208.26</ele>
        <time>2015-07-11T21:01:24Z</time>
      </trkpt>
      <trkpt lat="50.21617" lon="4.15853">
        <ele>209.7</ele>
        <time>2015-07-11T21:01:38Z</time>
      </trkpt>
      <trkpt lat="50.21619" lon="4.15859">
        <ele>209.7</ele>
        <time>2015-07-11T21:01:40Z</time>
      </trkpt>
      <trkpt lat="50.21625" lon="4.15862">
        <ele>209.7</ele>
        <time>2015-07-11T21:01:44Z</time>
      </trkpt>
      <trkpt lat="50.21637" lon="4.15855">
        <ele>209.7</ele>
        <time>2015-07-11T21:01:55Z</time>
      </trkpt>
      <trkpt lat="50.21638" lon="4.15858">
        <ele>209.7</ele>
        <time>2015-07-11T21:02:25Z</time>
      </trkpt>
      <trkpt lat="50.21639" lon="4.15856">
        <ele>209.7</ele>
        <time>2015-07-11T21:02:51Z</time>
      </trkpt>
      <trkpt lat="50.2164" lon="4.15855">
        <ele>209.7</ele>
        <time>2015-07-11T21:03:17Z</time>
      </trkpt>
      <trkpt lat="50.21652" lon="4.15851">
        <ele>209.7</ele>
        <time>2015-07-11T21:03:30Z</time>
      </trkpt>
      <trkpt lat="50.21672" lon="4.15844">
        <ele>209.7</ele>
        <time>2015-07-11T21:03:38Z</time>
      </trkpt>
      <trkpt lat="50.21686" lon="4.15868">
        <ele>210.19</ele>
        <time>2015-07-11T21:03:49Z</time>
      </trkpt>
      <trkpt lat="50.21696" lon="4.15927">
        <ele>211.63</ele>
        <time>2015-07-11T21:04:04Z</time>
      </trkpt>
      <trkpt lat="50.21697" lon="4.15934">
        <ele>211.63</ele>
        <time>2015-07-11T21:04:06Z</time>
      </trkpt>
      <trkpt lat="50.21708" lon="4.15929">
        <ele>212.11</ele>
        <time>2015-07-11T21:04:14Z</time>
      </trkpt>
      <trkpt lat="50.21725" lon="4.15928">
        <ele>212.11</ele>
        <time>2015-07-11T21:04:22Z</time>
      </trkpt>
      <trkpt lat="50.21728" lon="4.15941">
        <ele>212.59</ele>
        <time>2015-07-11T21:04:29Z</time>
      </trkpt>
      <trkpt lat="50.21725" lon="4.15953">
        <ele>213.07</ele>
        <time>2015-07-11T21:04:35Z</time>
      </trkpt>
      <trkpt lat="50.21723" lon="4.1596">
        <ele>213.07</ele>
        <time>2015-07-11T21:04:38Z</time>
      </trkpt>
      <trkpt lat="50.21725" lon="4.15977">
        <ele>213.07</ele>
        <time>2015-07-11T21:04:44Z</time>
      </trkpt>
      <trkpt lat="50.21721" lon="4.16011">
        <ele>214.51</ele>
        <time>2015-07-11T21:04:55Z</time>
      </trkpt>
      <trkpt lat="50.21725" lon="4.16015">
        <ele>214.99</ele>
        <time>2015-07-11T21:04:58Z</time>
      </trkpt>
      <trkpt lat="50.21728" lon="4.16028">
        <ele>214.99</ele>
        <time>2015-07-11T21:05:03Z</time>
      </trkpt>
      <trkpt lat="50.21724" lon="4.16067">
        <ele>216.43</ele>
        <time>2015-07-11T21:05:15Z</time>
      </trkpt>
      <trkpt lat="50.21727" lon="4.161">
        <ele>217.4</ele>
        <time>2015-07-11T21:05:23Z</time>
      </trkpt>
      <trkpt lat="50.21734" lon="4.16107">
        <ele>217.4</ele>
        <time>2015-07-11T21:05:27Z</time>
      </trkpt>
      <trkpt lat="50.2175" lon="4.16136">
        <ele>217.4</ele>
        <time>2015-07-11T21:05:39Z</time>
      </trkpt>
      <trkpt lat="50.21761" lon="4.1616">
        <ele>217.4</ele>
        <time>2015-07-11T21:05:48Z</time>
      </trkpt>
      <trkpt lat="50.21755" lon="4.16188">
        <ele>218.36</ele>
        <time>2015-07-11T21:05:58Z</time>
      </trkpt>
      <trkpt lat="50.21756" lon="4.162">
        <ele>218.84</ele>
        <time>2015-07-11T21:06:03Z</time>
      </trkpt>
      <trkpt lat="50.21769" lon="4.16234">
        <ele>218.84</ele>
        <time>2015-07-11T21:06:15Z</time>
      </trkpt>
      <trkpt lat="50.21763" lon="4.1628">
        <ele>219.32</ele>
        <time>2015-07-11T21:06:27Z</time>
      </trkpt>
      <trkpt lat="50.2177" lon="4.1628">
        <ele>219.32</ele>
        <time>2015-07-11T21:06:33Z</time>
      </trkpt>
      <trkpt lat="50.21774" lon="4.16274">
        <ele>219.32</ele>
        <time>2015-07-11T21:06:35Z</time>
      </trkpt>
      <trkpt lat="50.21779" lon="4.16271">
        <ele>217.88</ele>
        <time>2015-07-11T21:06:38Z</time>
      </trkpt>
      <trkpt lat="50.21786" lon="4.1628">
        <ele>217.88</ele>
        <time>2015-07-11T21:06:43Z</time>
      </trkpt>
      <trkpt lat="50.21789" lon="4.16298">
        <ele>217.4</ele>
        <time>2015-07-11T21:06:48Z</time>
      </trkpt>
      <trkpt lat="50.2179" lon="4.16322">
        <ele>217.4</ele>
        <time>2015-07-11T21:06:58Z</time>
      </trkpt>
      <trkpt lat="50.2178" lon="4.16366">
        <ele>218.84</ele>
        <time>2015-07-11T21:07:10Z</time>
      </trkpt>
      <trkpt lat="50.21779" lon="4.1643">
        <ele>219.32</ele>
        <time>2015-07-11T21:07:23Z</time>
      </trkpt>
      <trkpt lat="50.21784" lon="4.16497">
        <ele>219.32</ele>
        <time>2015-07-11T21:07:37Z</time>
      </trkpt>
      <trkpt lat="50.21781" lon="4.16512">
        <ele>219.32</ele>
        <time>2015-07-11T21:07:41Z</time>
      </trkpt>
      <trkpt lat="50.21751" lon="4.16525">
        <ele>219.8</ele>
        <time>2015-07-11T21:07:52Z</time>
      </trkpt>
      <trkpt lat="50.21702" lon="4.16513">
        <ele>221.24</ele>
        <time>2015-07-11T21:08:08Z</time>
      </trkpt>
      <trkpt lat="50.21669" lon="4.16503">
        <ele>222.2</ele>
        <time>2015-07-11T21:08:20Z</time>
      </trkpt>
      <trkpt lat="50.21654" lon="4.16494">
        <ele>222.68</ele>
        <time>2015-07-11T21:08:28Z</time>
      </trkpt>
      <trkpt lat="50.21653" lon="4.16491">
        <ele>222.68</ele>
        <time>2015-07-11T21:08:29Z</time>
      </trkpt>
      <trkpt lat="50.21644" lon="4.16439">
        <ele>224.12</ele>
        <time>2015-07-11T21:08:41Z</time>
      </trkpt>
      <trkpt lat="50.21633" lon="4.16379">
        <ele>224.61</ele>
        <time>2015-07-11T21:08:54Z</time>
      </trkpt>
      <trkpt lat="50.21623" lon="4.16317">
        <ele>224.61</ele>
        <time>2015-07-11T21:09:07Z</time>
      </trkpt>
      <trkpt lat="50.21611" lon="4.16254">
        <ele>223.16</ele>
        <time>2015-07-11T21:09:17Z</time>
      </trkpt>
      <trkpt lat="50.21601" lon="4.16209">
        <ele>221.72</ele>
        <time>2015-07-11T21:09:23Z</time>
      </trkpt>
      <trkpt lat="50.21598" lon="4.16182">
        <ele>220.76</ele>
        <time>2015-07-11T21:09:26Z</time>
      </trkpt>
      <trkpt lat="50.21578" lon="4.16075">
        <ele>216.91</ele>
        <time>2015-07-11T21:09:37Z</time>
      </trkpt>
      <trkpt lat="50.21563" lon="4.15976">
        <ele>214.03</ele>
        <time>2015-07-11T21:09:48Z</time>
      </trkpt>
      <trkpt lat="50.21552" lon="4.15909">
        <ele>211.63</ele>
        <time>2015-07-11T21:09:56Z</time>
      </trkpt>
      <trkpt lat="50.21532" lon="4.15893">
        <ele>211.15</ele>
        <time>2015-07-11T21:10:03Z</time>
      </trkpt>
      <trkpt lat="50.21518" lon="4.15865">
        <ele>210.67</ele>
        <time>2015-07-11T21:10:10Z</time>
      </trkpt>
      <trkpt lat="50.2151" lon="4.15823">
        <ele>209.7</ele>
        <time>2015-07-11T21:10:17Z</time>
      </trkpt>
      <trkpt lat="50.21503" lon="4.15776">
        <ele>205.86</ele>
        <time>2015-07-11T21:10:23Z</time>
      </trkpt>
      <trkpt lat="50.215" lon="4.15751">
        <ele>202.98</ele>
        <time>2015-07-11T21:10:26Z</time>
      </trkpt>
      <trkpt lat="50.21489" lon="4.15702">
        <ele>199.13</ele>
        <time>2015-07-11T21:10:32Z</time>
      </trkpt>
      <trkpt lat="50.21487" lon="4.15695">
        <ele>198.65</ele>
        <time>2015-07-11T21:10:33Z</time>
      </trkpt>
      <trkpt lat="50.21481" lon="4.15654">
        <ele>195.77</ele>
        <time>2015-07-11T21:10:37Z</time>
      </trkpt>
      <trkpt lat="50.21472" lon="4.15613">
        <ele>198.17</ele>
        <time>2015-07-11T21:10:43Z</time>
      </trkpt>
      <trkpt lat="50.21469" lon="4.15599">
        <ele>198.17</ele>
        <time>2015-07-11T21:10:45Z</time>
      </trkpt>
      <trkpt lat="50.21455" lon="4.15516">
        <ele>199.61</ele>
        <time>2015-07-11T21:10:58Z</time>
      </trkpt>
      <trkpt lat="50.21442" lon="4.15439">
        <ele>198.65</ele>
        <time>2015-07-11T21:11:10Z</time>
      </trkpt>
      <trkpt lat="50.21434" lon="4.15378">
        <ele>196.25</ele>
        <time>2015-07-11T21:11:17Z</time>
      </trkpt>
      <trkpt lat="50.21428" lon="4.15345">
        <ele>194.32</ele>
        <time>2015-07-11T21:11:21Z</time>
      </trkpt>
      <trkpt lat="50.2142" lon="4.15286">
        <ele>190.48</ele>
        <time>2015-07-11T21:11:29Z</time>
      </trkpt>
      <trkpt lat="50.21411" lon="4.15242">
        <ele>187.11</ele>
        <time>2015-07-11T21:11:36Z</time>
      </trkpt>
      <trkpt lat="50.21405" lon="4.15205">
        <ele>183.75</ele>
        <time>2015-07-11T21:11:41Z</time>
      </trkpt>
      <trkpt lat="50.21401" lon="4.15185">
        <ele>182.79</ele>
        <time>2015-07-11T21:11:43Z</time>
      </trkpt>
      <trkpt lat="50.21398" lon="4.1514">
        <ele>179.9</ele>
        <time>2015-07-11T21:11:48Z</time>
      </trkpt>
      <trkpt lat="50.21393" lon="4.15107">
        <ele>176.54</ele>
        <time>2015-07-11T21:11:52Z</time>
      </trkpt>
      <trkpt lat="50.21384" lon="4.15079">
        <ele>173.17</ele>
        <time>2015-07-11T21:11:56Z</time>
      </trkpt>
      <trkpt lat="50.21373" lon="4.15048">
        <ele>169.81</ele>
        <time>2015-07-11T21:12:03Z</time>
      </trkpt>
      <trkpt lat="50.21365" lon="4.1505">
        <ele>169.33</ele>
        <time>2015-07-11T21:12:07Z</time>
      </trkpt>
      <trkpt lat="50.21363" lon="4.15052">
        <ele>168.85</ele>
        <time>2015-07-11T21:12:08Z</time>
      </trkpt>
      <trkpt lat="50.21359" lon="4.15056">
        <ele>168.37</ele>
        <time>2015-07-11T21:12:09Z</time>
      </trkpt>
      <trkpt lat="50.21357" lon="4.15061">
        <ele>168.37</ele>
        <time>2015-07-11T21:12:10Z</time>
      </trkpt>
      <trkpt lat="50.21354" lon="4.15066">
        <ele>167.89</ele>
        <time>2015-07-11T21:12:11Z</time>
      </trkpt>
      <trkpt lat="50.21352" lon="4.15073">
        <ele>168.37</ele>
        <time>2015-07-11T21:12:12Z</time>
      </trkpt>
      <trkpt lat="50.2135" lon="4.15079">
        <ele>167.89</ele>
        <time>2015-07-11T21:12:13Z</time>
      </trkpt>
      <trkpt lat="50.21348" lon="4.15085">
        <ele>167.89</ele>
        <time>2015-07-11T21:12:14Z</time>
      </trkpt>
      <trkpt lat="50.21323" lon="4.15162">
        <ele>167.89</ele>
        <time>2015-07-11T21:12:25Z</time>
      </trkpt>
      <trkpt lat="50.21317" lon="4.15174">
        <ele>169.33</ele>
        <time>2015-07-11T21:12:27Z</time>
      </trkpt>
      <trkpt lat="50.21298" lon="4.15195">
        <ele>169.81</ele>
        <time>2015-07-11T21:12:32Z</time>
      </trkpt>
      <trkpt lat="50.21267" lon="4.15218">
        <ele>169.81</ele>
        <time>2015-07-11T21:12:38Z</time>
      </trkpt>
      <trkpt lat="50.21247" lon="4.15242">
        <ele>169.81</ele>
        <time>2015-07-11T21:12:43Z</time>
      </trkpt>
      <trkpt lat="50.21226" lon="4.15255">
        <ele>169.81</ele>
        <time>2015-07-11T21:12:48Z</time>
      </trkpt>
      <trkpt lat="50.21214" lon="4.1527">
        <ele>170.29</ele>
        <time>2015-07-11T21:12:56Z</time>
      </trkpt>
      <trkpt lat="50.21216" lon="4.15275">
        <ele>172.21</ele>
        <time>2015-07-11T21:13:08Z</time>
      </trkpt>
      <trkpt lat="50.21215" lon="4.15275">
        <ele>172.21</ele>
        <time>2015-07-11T21:13:09Z</time>
      </trkpt>
      <trkpt lat="50.21212" lon="4.15284">
        <ele>173.17</ele>
        <time>2015-07-11T21:13:21Z</time>
      </trkpt>
      <trkpt lat="50.21212" lon="4.15284">
        <ele>173.66</ele>
        <time>2015-07-11T21:13:22Z</time>
      </trkpt>
      <trkpt lat="50.21205" lon="4.15299">
        <ele>176.06</ele>
        <time>2015-07-11T21:13:36Z</time>
      </trkpt>
      <trkpt lat="50.21198" lon="4.15311">
        <ele>179.42</ele>
        <time>2015-07-11T21:13:50Z</time>
      </trkpt>
      <trkpt lat="50.21195" lon="4.15317">
        <ele>180.38</ele>
        <time>2015-07-11T21:14:03Z</time>
      </trkpt>
      <trkpt lat="50.21184" lon="4.15328">
        <ele>184.23</ele>
        <time>2015-07-11T21:14:16Z</time>
      </trkpt>
      <trkpt lat="50.21176" lon="4.15336">
        <ele>186.15</ele>
        <time>2015-07-11T21:14:29Z</time>
      </trkpt>
      <trkpt lat="50.21161" lon="4.15359">
        <ele>186.63</ele>
        <time>2015-07-11T21:14:39Z</time>
      </trkpt>
      <trkpt lat="50.21159" lon="4.15362">
        <ele>186.63</ele>
        <time>2015-07-11T21:14:40Z</time>
      </trkpt>
      <trkpt lat="50.21154" lon="4.15373">
        <ele>187.59</ele>
        <time>2015-07-11T21:14:44Z</time>
      </trkpt>
      <trkpt lat="50.21149" lon="4.15395">
        <ele>189.52</ele>
        <time>2015-07-11T21:14:58Z</time>
      </trkpt>
      <trkpt lat="50.21142" lon="4.15407">
        <ele>190.48</ele>
        <time>2015-07-11T21:15:17Z</time>
      </trkpt>
      <trkpt lat="50.21137" lon="4.15428">
        <ele>192.88</ele>
        <time>2015-07-11T21:15:32Z</time>
      </trkpt>
      <trkpt lat="50.21132" lon="4.15449">
        <ele>194.8</ele>
        <time>2015-07-11T21:15:47Z</time>
      </trkpt>
      <trkpt lat="50.21123" lon="4.15474">
        <ele>196.73</ele>
        <time>2015-07-11T21:16:03Z</time>
      </trkpt>
      <trkpt lat="50.21123" lon="4.15477">
        <ele>196.73</ele>
        <time>2015-07-11T21:16:05Z</time>
      </trkpt>
      <trkpt lat="50.21123" lon="4.15499">
        <ele>198.65</ele>
        <time>2015-07-11T21:16:20Z</time>
      </trkpt>
      <trkpt lat="50.21121" lon="4.15524">
        <ele>200.09</ele>
        <time>2015-07-11T21:16:35Z</time>
      </trkpt>
      <trkpt lat="50.21118" lon="4.15553">
        <ele>201.05</ele>
        <time>2015-07-11T21:16:50Z</time>
      </trkpt>
      <trkpt lat="50.21119" lon="4.15561">
        <ele>201.53</ele>
        <time>2015-07-11T21:16:56Z</time>
      </trkpt>
      <trkpt lat="50.21118" lon="4.15564">
        <ele>201.53</ele>
        <time>2015-07-11T21:16:58Z</time>
      </trkpt>
      <trkpt lat="50.21118" lon="4.15615">
        <ele>202.98</ele>
        <time>2015-07-11T21:17:15Z</time>
      </trkpt>
      <trkpt lat="50.21118" lon="4.15662">
        <ele>204.42</ele>
        <time>2015-07-11T21:17:29Z</time>
      </trkpt>
      <trkpt lat="50.21118" lon="4.15705">
        <ele>204.9</ele>
        <time>2015-07-11T21:17:42Z</time>
      </trkpt>
      <trkpt lat="50.21118" lon="4.15758">
        <ele>205.38</ele>
        <time>2015-07-11T21:17:56Z</time>
      </trkpt>
      <trkpt lat="50.21119" lon="4.158">
        <ele>206.34</ele>
        <time>2015-07-11T21:18:08Z</time>
      </trkpt>
      <trkpt lat="50.21118" lon="4.15845">
        <ele>207.3</ele>
        <time>2015-07-11T21:18:21Z</time>
      </trkpt>
      <trkpt lat="50.21114" lon="4.15898">
        <ele>208.26</ele>
        <time>2015-07-11T21:18:36Z</time>
      </trkpt>
      <trkpt lat="50.21112" lon="4.15945">
        <ele>209.22</ele>
        <time>2015-07-11T21:18:48Z</time>
      </trkpt>
      <trkpt lat="50.21113" lon="4.16">
        <ele>211.15</ele>
        <time>2015-07-11T21:19:04Z</time>
      </trkpt>
      <trkpt lat="50.21114" lon="4.16059">
        <ele>211.63</ele>
        <time>2015-07-11T21:19:19Z</time>
      </trkpt>
      <trkpt lat="50.21115" lon="4.1611">
        <ele>213.55</ele>
        <time>2015-07-11T21:19:33Z</time>
      </trkpt>
      <trkpt lat="50.21115" lon="4.16162">
        <ele>215.95</ele>
        <time>2015-07-11T21:19:48Z</time>
      </trkpt>
      <trkpt lat="50.21113" lon="4.16165">
        <ele>215.95</ele>
        <time>2015-07-11T21:19:49Z</time>
      </trkpt>
      <trkpt lat="50.21111" lon="4.16167">
        <ele>215.95</ele>
        <time>2015-07-11T21:19:50Z</time>
      </trkpt>
      <trkpt lat="50.21108" lon="4.16168">
        <ele>215.95</ele>
        <time>2015-07-11T21:19:51Z</time>
      </trkpt>
      <trkpt lat="50.21072" lon="4.16182">
        <ele>215.95</ele>
        <time>2015-07-11T21:20:05Z</time>
      </trkpt>
      <trkpt lat="50.21034" lon="4.16196">
        <ele>217.4</ele>
        <time>2015-07-11T21:20:21Z</time>
      </trkpt>
      <trkpt lat="50.20991" lon="4.16212">
        <ele>219.8</ele>
        <time>2015-07-11T21:20:40Z</time>
      </trkpt>
      <trkpt lat="50.20962" lon="4.16223">
        <ele>221.72</ele>
        <time>2015-07-11T21:20:53Z</time>
      </trkpt>
      <trkpt lat="50.20922" lon="4.16233">
        <ele>222.68</ele>
        <time>2015-07-11T21:21:10Z</time>
      </trkpt>
      <trkpt lat="50.2088" lon="4.16231">
        <ele>223.16</ele>
        <time>2015-07-11T21:21:23Z</time>
      </trkpt>
      <trkpt lat="50.20822" lon="4.16227">
        <ele>224.61</ele>
        <time>2015-07-11T21:21:39Z</time>
      </trkpt>
      <trkpt lat="50.20757" lon="4.16224">
        <ele>225.57</ele>
        <time>2015-07-11T21:21:54Z</time>
      </trkpt>
      <trkpt lat="50.20683" lon="4.16221">
        <ele>226.53</ele>
        <time>2015-07-11T21:22:13Z</time>
      </trkpt>
      <trkpt lat="50.20628" lon="4.16223">
        <ele>227.49</ele>
        <time>2015-07-11T21:22:29Z</time>
      </trkpt>
      <trkpt lat="50.20587" lon="4.16221">
        <ele>227.49</ele>
        <time>2015-07-11T21:22:45Z</time>
      </trkpt>
      <trkpt lat="50.20584" lon="4.16222">
        <ele>227.49</ele>
        <time>2015-07-11T21:23:07Z</time>
      </trkpt>
      <trkpt lat="50.20583" lon="4.16222">
        <ele>227.49</ele>
        <time>2015-07-11T21:23:08Z</time>
      </trkpt>
      <trkpt lat="50.2058" lon="4.16222">
        <ele>227.49</ele>
        <time>2015-07-11T21:23:18Z</time>
      </trkpt>
      <trkpt lat="50.20579" lon="4.16222">
        <ele>227.49</ele>
        <time>2015-07-11T21:23:19Z</time>
      </trkpt>
      <trkpt lat="50.20577" lon="4.16222">
        <ele>227.49</ele>
        <time>2015-07-11T21:23:20Z</time>
      </trkpt>
      <trkpt lat="50.20575" lon="4.16222">
        <ele>227.49</ele>
        <time>2015-07-11T21:23:21Z</time>
      </trkpt>
      <trkpt lat="50.20573" lon="4.16222">
        <ele>227.49</ele>
        <time>2015-07-11T21:23:22Z</time>
      </trkpt>
      <trkpt lat="50.20571" lon="4.16221">
        <ele>227.49</ele>
        <time>2015-07-11T21:23:23Z</time>
      </trkpt>
      <trkpt lat="50.20568" lon="4.16222">
        <ele>227.49</ele>
        <time>2015-07-11T21:23:24Z</time>
      </trkpt>
      <trkpt lat="50.20552" lon="4.16223">
        <ele>227.49</ele>
        <time>2015-07-11T21:23:28Z</time>
      </trkpt>
      <trkpt lat="50.20519" lon="4.1625">
        <ele>225.09</ele>
        <time>2015-07-11T21:23:38Z</time>
      </trkpt>
      <trkpt lat="50.20508" lon="4.16274">
        <ele>223.64</ele>
        <time>2015-07-11T21:23:42Z</time>
      </trkpt>
      <trkpt lat="50.20503" lon="4.16288">
        <ele>223.64</ele>
        <time>2015-07-11T21:23:44Z</time>
      </trkpt>
      <trkpt lat="50.20483" lon="4.1635">
        <ele>220.28</ele>
        <time>2015-07-11T21:23:52Z</time>
      </trkpt>
      <trkpt lat="50.20463" lon="4.164">
        <ele>216.91</ele>
        <time>2015-07-11T21:23:58Z</time>
      </trkpt>
      <trkpt lat="50.20446" lon="4.16441">
        <ele>214.99</ele>
        <time>2015-07-11T21:24:03Z</time>
      </trkpt>
      <trkpt lat="50.20428" lon="4.16483">
        <ele>211.63</ele>
        <time>2015-07-11T21:24:07Z</time>
      </trkpt>
      <trkpt lat="50.20419" lon="4.16505">
        <ele>210.67</ele>
        <time>2015-07-11T21:24:09Z</time>
      </trkpt>
      <trkpt lat="50.20397" lon="4.16562">
        <ele>208.26</ele>
        <time>2015-07-11T21:24:15Z</time>
      </trkpt>
      <trkpt lat="50.20382" lon="4.16625">
        <ele>204.9</ele>
        <time>2015-07-11T21:24:21Z</time>
      </trkpt>
      <trkpt lat="50.20354" lon="4.16763">
        <ele>201.53</ele>
        <time>2015-07-11T21:24:34Z</time>
      </trkpt>
      <trkpt lat="50.20341" lon="4.16814">
        <ele>198.65</ele>
        <time>2015-07-11T21:24:39Z</time>
      </trkpt>
      <trkpt lat="50.20325" lon="4.16876">
        <ele>195.28</ele>
        <time>2015-07-11T21:24:45Z</time>
      </trkpt>
      <trkpt lat="50.20323" lon="4.16887">
        <ele>194.8</ele>
        <time>2015-07-11T21:24:46Z</time>
      </trkpt>
      <trkpt lat="50.20321" lon="4.16897">
        <ele>195.28</ele>
        <time>2015-07-11T21:24:47Z</time>
      </trkpt>
      <trkpt lat="50.20319" lon="4.16918">
        <ele>195.28</ele>
        <time>2015-07-11T21:24:49Z</time>
      </trkpt>
      <trkpt lat="50.2032" lon="4.16927">
        <ele>194.8</ele>
        <time>2015-07-11T21:24:50Z</time>
      </trkpt>
      <trkpt lat="50.20321" lon="4.16936">
        <ele>194.8</ele>
        <time>2015-07-11T21:24:51Z</time>
      </trkpt>
      <trkpt lat="50.20331" lon="4.17">
        <ele>191.92</ele>
        <time>2015-07-11T21:24:58Z</time>
      </trkpt>
      <trkpt lat="50.20338" lon="4.17049">
        <ele>188.56</ele>
        <time>2015-07-11T21:25:03Z</time>
      </trkpt>
      <trkpt lat="50.2034" lon="4.1708">
        <ele>186.63</ele>
        <time>2015-07-11T21:25:08Z</time>
      </trkpt>
      <trkpt lat="50.20337" lon="4.17085">
        <ele>186.15</ele>
        <time>2015-07-11T21:25:09Z</time>
      </trkpt>
      <trkpt lat="50.20333" lon="4.17087">
        <ele>186.63</ele>
        <time>2015-07-11T21:25:10Z</time>
      </trkpt>
      <trkpt lat="50.20329" lon="4.17089">
        <ele>185.67</ele>
        <time>2015-07-11T21:25:11Z</time>
      </trkpt>
      <trkpt lat="50.20324" lon="4.17091">
        <ele>185.67</ele>
        <time>2015-07-11T21:25:12Z</time>
      </trkpt>
      <trkpt lat="50.2032" lon="4.17093">
        <ele>185.67</ele>
        <time>2015-07-11T21:25:13Z</time>
      </trkpt>
      <trkpt lat="50.20316" lon="4.17094">
        <ele>185.19</ele>
        <time>2015-07-11T21:25:14Z</time>
      </trkpt>
      <trkpt lat="50.20295" lon="4.17103">
        <ele>184.71</ele>
        <time>2015-07-11T21:25:19Z</time>
      </trkpt>
      <trkpt lat="50.20291" lon="4.17107">
        <ele>184.71</ele>
        <time>2015-07-11T21:25:20Z</time>
      </trkpt>
      <trkpt lat="50.20288" lon="4.17114">
        <ele>184.71</ele>
        <time>2015-07-11T21:25:21Z</time>
      </trkpt>
      <trkpt lat="50.20286" lon="4.17121">
        <ele>184.71</ele>
        <time>2015-07-11T21:25:22Z</time>
      </trkpt>
      <trkpt lat="50.20285" lon="4.17127">
        <ele>184.71</ele>
        <time>2015-07-11T21:25:23Z</time>
      </trkpt>
      <trkpt lat="50.20285" lon="4.17134">
        <ele>184.71</ele>
        <time>2015-07-11T21:25:24Z</time>
      </trkpt>
      <trkpt lat="50.20284" lon="4.17161">
        <ele>186.15</ele>
        <time>2015-07-11T21:25:29Z</time>
      </trkpt>
      <trkpt lat="50.20283" lon="4.17215">
        <ele>189.52</ele>
        <time>2015-07-11T21:25:39Z</time>
      </trkpt>
      <trkpt lat="50.20281" lon="4.17278">
        <ele>192.4</ele>
        <time>2015-07-11T21:25:49Z</time>
      </trkpt>
      <trkpt lat="50.20283" lon="4.17353">
        <ele>195.77</ele>
        <time>2015-07-11T21:26:02Z</time>
      </trkpt>
      <trkpt lat="50.20292" lon="4.1744">
        <ele>198.17</ele>
        <time>2015-07-11T21:26:17Z</time>
      </trkpt>
      <trkpt lat="50.20305" lon="4.17539">
        <ele>201.53</ele>
        <time>2015-07-11T21:26:34Z</time>
      </trkpt>
      <trkpt lat="50.20311" lon="4.17571">
        <ele>202.49</ele>
        <time>2015-07-11T21:26:40Z</time>
      </trkpt>
      <trkpt lat="50.20321" lon="4.17613">
        <ele>204.9</ele>
        <time>2015-07-11T21:26:51Z</time>
      </trkpt>
      <trkpt lat="50.2033" lon="4.17654">
        <ele>208.26</ele>
        <time>2015-07-11T21:27:04Z</time>
      </trkpt>
      <trkpt lat="50.20344" lon="4.17688">
        <ele>210.19</ele>
        <time>2015-07-11T21:27:16Z</time>
      </trkpt>
      <trkpt lat="50.20373" lon="4.17714">
        <ele>212.11</ele>
        <time>2015-07-11T21:27:30Z</time>
      </trkpt>
      <trkpt lat="50.20406" lon="4.17735">
        <ele>213.55</ele>
        <time>2015-07-11T21:27:44Z</time>
      </trkpt>
      <trkpt lat="50.20454" lon="4.17755">
        <ele>216.43</ele>
        <time>2015-07-11T21:28:01Z</time>
      </trkpt>
      <trkpt lat="50.20503" lon="4.17773">
        <ele>219.8</ele>
        <time>2015-07-11T21:28:20Z</time>
      </trkpt>
      <trkpt lat="50.20547" lon="4.17786">
        <ele>221.72</ele>
        <time>2015-07-11T21:28:34Z</time>
      </trkpt>
      <trkpt lat="50.20591" lon="4.17823">
        <ele>223.16</ele>
        <time>2015-07-11T21:28:48Z</time>
      </trkpt>
      <trkpt lat="50.20595" lon="4.17827">
        <ele>223.16</ele>
        <time>2015-07-11T21:28:49Z</time>
      </trkpt>
      <trkpt lat="50.2063" lon="4.17865">
        <ele>223.64</ele>
        <time>2015-07-11T21:28:59Z</time>
      </trkpt>
      <trkpt lat="50.20633" lon="4.17869">
        <ele>223.64</ele>
        <time>2015-07-11T21:29:00Z</time>
      </trkpt>
      <trkpt lat="50.20651" lon="4.17888">
        <ele>224.12</ele>
        <time>2015-07-11T21:29:05Z</time>
      </trkpt>
      <trkpt lat="50.20655" lon="4.17891">
        <ele>224.12</ele>
        <time>2015-07-11T21:29:06Z</time>
      </trkpt>
      <trkpt lat="50.20697" lon="4.17945">
        <ele>224.61</ele>
        <time>2015-07-11T21:29:19Z</time>
      </trkpt>
      <trkpt lat="50.20749" lon="4.18031">
        <ele>225.57</ele>
        <time>2015-07-11T21:29:36Z</time>
      </trkpt>
      <trkpt lat="50.20752" lon="4.18036">
        <ele>225.57</ele>
        <time>2015-07-11T21:29:37Z</time>
      </trkpt>
      <trkpt lat="50.20758" lon="4.18046">
        <ele>226.05</ele>
        <time>2015-07-11T21:29:39Z</time>
      </trkpt>
      <trkpt lat="50.20813" lon="4.18138">
        <ele>227.49</ele>
        <time>2015-07-11T21:29:58Z</time>
      </trkpt>
      <trkpt lat="50.20831" lon="4.18168">
        <ele>227.97</ele>
        <time>2015-07-11T21:30:04Z</time>
      </trkpt>
      <trkpt lat="50.20883" lon="4.18256">
        <ele>228.93</ele>
        <time>2015-07-11T21:30:22Z</time>
      </trkpt>
      <trkpt lat="50.20903" lon="4.18296">
        <ele>229.89</ele>
        <time>2015-07-11T21:30:30Z</time>
      </trkpt>
      <trkpt lat="50.20908" lon="4.18306">
        <ele>229.89</ele>
        <time>2015-07-11T21:30:32Z</time>
      </trkpt>
      <trkpt lat="50.20913" lon="4.18317">
        <ele>230.37</ele>
        <time>2015-07-11T21:30:34Z</time>
      </trkpt>
      <trkpt lat="50.20918" lon="4.18327">
        <ele>230.85</ele>
        <time>2015-07-11T21:30:36Z</time>
      </trkpt>
      <trkpt lat="50.2092" lon="4.18332">
        <ele>230.85</ele>
        <time>2015-07-11T21:30:37Z</time>
      </trkpt>
      <trkpt lat="50.20925" lon="4.18343">
        <ele>230.85</ele>
        <time>2015-07-11T21:30:39Z</time>
      </trkpt>
      <trkpt lat="50.20938" lon="4.1837">
        <ele>231.33</ele>
        <time>2015-07-11T21:30:44Z</time>
      </trkpt>
      <trkpt lat="50.2094" lon="4.18375">
        <ele>231.33</ele>
        <time>2015-07-11T21:30:45Z</time>
      </trkpt>
      <trkpt lat="50.20943" lon="4.1838">
        <ele>231.33</ele>
        <time>2015-07-11T21:30:46Z</time>
      </trkpt>
      <trkpt lat="50.20986" lon="4.18473">
        <ele>232.3</ele>
        <time>2015-07-11T21:31:02Z</time>
      </trkpt>
      <trkpt lat="50.20995" lon="4.1849">
        <ele>232.3</ele>
        <time>2015-07-11T21:31:05Z</time>
      </trkpt>
      <trkpt lat="50.21049" lon="4.18597">
        <ele>232.78</ele>
        <time>2015-07-11T21:31:23Z</time>
      </trkpt>
      <trkpt lat="50.21107" lon="4.1871">
        <ele>233.26</ele>
        <time>2015-07-11T21:31:43Z</time>
      </trkpt>
      <trkpt lat="50.21113" lon="4.18717">
        <ele>233.26</ele>
        <time>2015-07-11T21:31:45Z</time>
      </trkpt>
      <trkpt lat="50.21117" lon="4.18716">
        <ele>233.26</ele>
        <time>2015-07-11T21:31:46Z</time>
      </trkpt>
      <trkpt lat="50.21119" lon="4.18713">
        <ele>233.26</ele>
        <time>2015-07-11T21:31:47Z</time>
      </trkpt>
      <trkpt lat="50.2112" lon="4.1871">
        <ele>233.26</ele>
        <time>2015-07-11T21:31:48Z</time>
      </trkpt>
      <trkpt lat="50.21121" lon="4.18705">
        <ele>233.26</ele>
        <time>2015-07-11T21:31:49Z</time>
      </trkpt>
      <trkpt lat="50.21122" lon="4.187">
        <ele>233.26</ele>
        <time>2015-07-11T21:31:50Z</time>
      </trkpt>
      <trkpt lat="50.21132" lon="4.18618">
        <ele>233.26</ele>
        <time>2015-07-11T21:32:05Z</time>
      </trkpt>
      <trkpt lat="50.21148" lon="4.1854">
        <ele>233.26</ele>
        <time>2015-07-11T21:32:19Z</time>
      </trkpt>
      <trkpt lat="50.21179" lon="4.1846">
        <ele>233.26</ele>
        <time>2015-07-11T21:32:34Z</time>
      </trkpt>
      <trkpt lat="50.21219" lon="4.18369">
        <ele>233.26</ele>
        <time>2015-07-11T21:32:50Z</time>
      </trkpt>
      <trkpt lat="50.21227" lon="4.18353">
        <ele>233.26</ele>
        <time>2015-07-11T21:32:53Z</time>
      </trkpt>
      <trkpt lat="50.2123" lon="4.18347">
        <ele>233.26</ele>
        <time>2015-07-11T21:32:54Z</time>
      </trkpt>
      <trkpt lat="50.21233" lon="4.18341">
        <ele>233.26</ele>
        <time>2015-07-11T21:32:55Z</time>
      </trkpt>
      <trkpt lat="50.21266" lon="4.18282">
        <ele>232.3</ele>
        <time>2015-07-11T21:33:06Z</time>
      </trkpt>
      <trkpt lat="50.21318" lon="4.18184">
        <ele>231.33</ele>
        <time>2015-07-11T21:33:24Z</time>
      </trkpt>
      <trkpt lat="50.21361" lon="4.18094">
        <ele>229.89</ele>
        <time>2015-07-11T21:33:40Z</time>
      </trkpt>
      <trkpt lat="50.21396" lon="4.17998">
        <ele>228.45</ele>
        <time>2015-07-11T21:33:55Z</time>
      </trkpt>
      <trkpt lat="50.21419" lon="4.17901">
        <ele>227.97</ele>
        <time>2015-07-11T21:34:11Z</time>
      </trkpt>
      <trkpt lat="50.21424" lon="4.1789">
        <ele>227.97</ele>
        <time>2015-07-11T21:34:13Z</time>
      </trkpt>
      <trkpt lat="50.2143" lon="4.17879">
        <ele>227.97</ele>
        <time>2015-07-11T21:34:15Z</time>
      </trkpt>
      <trkpt lat="50.21433" lon="4.17874">
        <ele>227.97</ele>
        <time>2015-07-11T21:34:16Z</time>
      </trkpt>
      <trkpt lat="50.21476" lon="4.17831">
        <ele>227.49</ele>
        <time>2015-07-11T21:34:29Z</time>
      </trkpt>
      <trkpt lat="50.21488" lon="4.17822">
        <ele>227.49</ele>
        <time>2015-07-11T21:34:34Z</time>
      </trkpt>
      <trkpt lat="50.21489" lon="4.17819">
        <ele>227.49</ele>
        <time>2015-07-11T21:34:35Z</time>
      </trkpt>
      <trkpt lat="50.21492" lon="4.17787">
        <ele>228.93</ele>
        <time>2015-07-11T21:34:45Z</time>
      </trkpt>
      <trkpt lat="50.21496" lon="4.1774">
        <ele>230.37</ele>
        <time>2015-07-11T21:34:58Z</time>
      </trkpt>
      <trkpt lat="50.21501" lon="4.17691">
        <ele>231.33</ele>
        <time>2015-07-11T21:35:09Z</time>
      </trkpt>
      <trkpt lat="50.21508" lon="4.17637">
        <ele>232.3</ele>
        <time>2015-07-11T21:35:22Z</time>
      </trkpt>
      <trkpt lat="50.21514" lon="4.17593">
        <ele>232.78</ele>
        <time>2015-07-11T21:35:33Z</time>
      </trkpt>
      <trkpt lat="50.21508" lon="4.17564">
        <ele>233.74</ele>
        <time>2015-07-11T21:35:44Z</time>
      </trkpt>
      <trkpt lat="50.2151" lon="4.17559">
        <ele>233.74</ele>
        <time>2015-07-11T21:35:47Z</time>
      </trkpt>
      <trkpt lat="50.21536" lon="4.1755">
        <ele>233.74</ele>
        <time>2015-07-11T21:35:58Z</time>
      </trkpt>
      <trkpt lat="50.21566" lon="4.17548">
        <ele>231.81</ele>
        <time>2015-07-11T21:36:10Z</time>
      </trkpt>
      <trkpt lat="50.2159" lon="4.1755">
        <ele>230.85</ele>
        <time>2015-07-11T21:36:21Z</time>
      </trkpt>
      <trkpt lat="50.21622" lon="4.17554">
        <ele>229.89</ele>
        <time>2015-07-11T21:36:33Z</time>
      </trkpt>
      <trkpt lat="50.21628" lon="4.17553">
        <ele>229.89</ele>
        <time>2015-07-11T21:36:36Z</time>
      </trkpt>
      <trkpt lat="50.21635" lon="4.1755">
        <ele>229.41</ele>
        <time>2015-07-11T21:36:40Z</time>
      </trkpt>
      <trkpt lat="50.21671" lon="4.17556">
        <ele>228.93</ele>
        <time>2015-07-11T21:36:53Z</time>
      </trkpt>
      <trkpt lat="50.21705" lon="4.17557">
        <ele>227.49</ele>
        <time>2015-07-11T21:37:03Z</time>
      </trkpt>
      <trkpt lat="50.21743" lon="4.17562">
        <ele>227.01</ele>
        <time>2015-07-11T21:37:15Z</time>
      </trkpt>
      <trkpt lat="50.2178" lon="4.17575">
        <ele>226.05</ele>
        <time>2015-07-11T21:37:24Z</time>
      </trkpt>
      <trkpt lat="50.21794" lon="4.1758">
        <ele>225.57</ele>
        <time>2015-07-11T21:37:27Z</time>
      </trkpt>
      <trkpt lat="50.21816" lon="4.17589">
        <ele>224.61</ele>
        <time>2015-07-11T21:37:31Z</time>
      </trkpt>
      <trkpt lat="50.21829" lon="4.17593">
        <ele>224.61</ele>
        <time>2015-07-11T21:37:34Z</time>
      </trkpt>
      <trkpt lat="50.21866" lon="4.17607">
        <ele>224.12</ele>
        <time>2015-07-11T21:37:41Z</time>
      </trkpt>
      <trkpt lat="50.219" lon="4.1762">
        <ele>222.2</ele>
        <time>2015-07-11T21:37:48Z</time>
      </trkpt>
      <trkpt lat="50.21916" lon="4.17625">
        <ele>221.24</ele>
        <time>2015-07-11T21:37:51Z</time>
      </trkpt>
      <trkpt lat="50.21963" lon="4.17642">
        <ele>219.32</ele>
        <time>2015-07-11T21:38:00Z</time>
      </trkpt>
      <trkpt lat="50.2199" lon="4.17657">
        <ele>218.36</ele>
        <time>2015-07-11T21:38:07Z</time>
      </trkpt>
      <trkpt lat="50.21996" lon="4.17671">
        <ele>217.88</ele>
        <time>2015-07-11T21:38:12Z</time>
      </trkpt>
      <trkpt lat="50.21995" lon="4.17722">
        <ele>216.91</ele>
        <time>2015-07-11T21:38:24Z</time>
      </trkpt>
      <trkpt lat="50.21998" lon="4.17724">
        <ele>216.91</ele>
        <time>2015-07-11T21:38:25Z</time>
      </trkpt>
      <trkpt lat="50.22001" lon="4.17725">
        <ele>216.43</ele>
        <time>2015-07-11T21:38:26Z</time>
      </trkpt>
      <trkpt lat="50.22004" lon="4.17726">
        <ele>216.43</ele>
        <time>2015-07-11T21:38:27Z</time>
      </trkpt>
      <trkpt lat="50.22008" lon="4.17727">
        <ele>216.43</ele>
        <time>2015-07-11T21:38:28Z</time>
      </trkpt>
      <trkpt lat="50.22064" lon="4.17726">
        <ele>214.51</ele>
        <time>2015-07-11T21:38:41Z</time>
      </trkpt>
      <trkpt lat="50.22082" lon="4.17724">
        <ele>214.51</ele>
        <time>2015-07-11T21:38:45Z</time>
      </trkpt>
      <trkpt lat="50.22086" lon="4.17723">
        <ele>214.03</ele>
        <time>2015-07-11T21:38:46Z</time>
      </trkpt>
      <trkpt lat="50.22091" lon="4.17723">
        <ele>214.03</ele>
        <time>2015-07-11T21:38:47Z</time>
      </trkpt>
      <trkpt lat="50.2215" lon="4.17734">
        <ele>213.07</ele>
        <time>2015-07-11T21:38:58Z</time>
      </trkpt>
      <trkpt lat="50.22229" lon="4.17766">
        <ele>212.59</ele>
        <time>2015-07-11T21:39:13Z</time>
      </trkpt>
      <trkpt lat="50.22311" lon="4.1782">
        <ele>212.11</ele>
        <time>2015-07-11T21:39:28Z</time>
      </trkpt>
      <trkpt lat="50.22389" lon="4.17869">
        <ele>214.03</ele>
        <time>2015-07-11T21:39:44Z</time>
      </trkpt>
      <trkpt lat="50.22414" lon="4.17873">
        <ele>214.99</ele>
        <time>2015-07-11T21:39:49Z</time>
      </trkpt>
      <trkpt lat="50.22428" lon="4.17872">
        <ele>215.47</ele>
        <time>2015-07-11T21:39:52Z</time>
      </trkpt>
      <trkpt lat="50.22473" lon="4.17862">
        <ele>217.88</ele>
        <time>2015-07-11T21:40:04Z</time>
      </trkpt>
      <trkpt lat="50.2251" lon="4.17871">
        <ele>218.36</ele>
        <time>2015-07-11T21:40:16Z</time>
      </trkpt>
      <trkpt lat="50.22563" lon="4.1789">
        <ele>219.32</ele>
        <time>2015-07-11T21:40:31Z</time>
      </trkpt>
      <trkpt lat="50.22625" lon="4.17913">
        <ele>220.28</ele>
        <time>2015-07-11T21:40:48Z</time>
      </trkpt>
      <trkpt lat="50.22678" lon="4.17933">
        <ele>221.24</ele>
        <time>2015-07-11T21:41:02Z</time>
      </trkpt>
      <trkpt lat="50.22717" lon="4.17946">
        <ele>222.2</ele>
        <time>2015-07-11T21:41:16Z</time>
      </trkpt>
      <trkpt lat="50.22723" lon="4.1795">
        <ele>222.2</ele>
        <time>2015-07-11T21:41:28Z</time>
      </trkpt>
      <trkpt lat="50.22731" lon="4.17954">
        <ele>222.2</ele>
        <time>2015-07-11T21:41:45Z</time>
      </trkpt>
      <trkpt lat="50.22731" lon="4.17957">
        <ele>222.2</ele>
        <time>2015-07-11T21:42:01Z</time>
      </trkpt>
      <trkpt lat="50.22732" lon="4.17958">
        <ele>222.2</ele>
        <time>2015-07-11T21:42:23Z</time>
      </trkpt>
      <trkpt lat="50.22732" lon="4.17956">
        <ele>222.2</ele>
        <time>2015-07-11T21:42:56Z</time>
      </trkpt>
      <trkpt lat="50.22732" lon="4.17956">
        <ele>222.2</ele>
        <time>2015-07-11T21:43:25Z</time>
      </trkpt>
      <trkpt lat="50.22732" lon="4.17956">
        <ele>222.68</ele>
        <time>2015-07-11T21:43:54Z</time>
      </trkpt>
      <trkpt lat="50.22731" lon="4.17957">
        <ele>222.68</ele>
        <time>2015-07-11T21:44:35Z</time>
      </trkpt>
      <trkpt lat="50.22731" lon="4.17957">
        <ele>222.68</ele>
        <time>2015-07-11T21:45:10Z</time>
      </trkpt>
      <trkpt lat="50.22732" lon="4.17957">
        <ele>222.68</ele>
        <time>2015-07-11T21:45:43Z</time>
      </trkpt>
      <trkpt lat="50.22732" lon="4.17957">
        <ele>222.68</ele>
        <time>2015-07-11T21:46:16Z</time>
      </trkpt>
      <trkpt lat="50.22731" lon="4.17957">
        <ele>222.68</ele>
        <time>2015-07-11T21:46:41Z</time>
      </trkpt>
      <trkpt lat="50.22732" lon="4.17958">
        <ele>222.68</ele>
        <time>2015-07-11T21:47:18Z</time>
      </trkpt>
      <trkpt lat="50.22731" lon="4.17957">
        <ele>222.68</ele>
        <time>2015-07-11T21:47:46Z</time>
      </trkpt>
      <trkpt lat="50.2273" lon="4.17959">
        <ele>222.68</ele>
        <time>2015-07-11T21:48:13Z</time>
      </trkpt>
      <trkpt lat="50.22731" lon="4.17956">
        <ele>222.68</ele>
        <time>2015-07-11T21:48:53Z</time>
      </trkpt>
      <trkpt lat="50.22731" lon="4.17958">
        <ele>222.68</ele>
        <time>2015-07-11T21:49:33Z</time>
      </trkpt>
      <trkpt lat="50.22734" lon="4.17955">
        <ele>223.16</ele>
        <time>2015-07-11T21:50:00Z</time>
      </trkpt>
      <trkpt lat="50.22738" lon="4.17956">
        <ele>223.16</ele>
        <time>2015-07-11T21:50:13Z</time>
      </trkpt>
      <trkpt lat="50.22744" lon="4.17956">
        <ele>223.16</ele>
        <time>2015-07-11T21:50:28Z</time>
      </trkpt>
      <trkpt lat="50.22744" lon="4.17957">
        <ele>223.16</ele>
        <time>2015-07-11T21:50:49Z</time>
      </trkpt>
      <trkpt lat="50.22746" lon="4.1796">
        <ele>223.16</ele>
        <time>2015-07-11T21:51:03Z</time>
      </trkpt>
      <trkpt lat="50.22767" lon="4.17969">
        <ele>223.16</ele>
        <time>2015-07-11T21:51:15Z</time>
      </trkpt>
      <trkpt lat="50.22775" lon="4.17972">
        <ele>221.72</ele>
        <time>2015-07-11T21:51:19Z</time>
      </trkpt>
      <trkpt lat="50.22793" lon="4.1798">
        <ele>220.28</ele>
        <time>2015-07-11T21:51:29Z</time>
      </trkpt>
      <trkpt lat="50.2282" lon="4.17993">
        <ele>218.84</ele>
        <time>2015-07-11T21:51:42Z</time>
      </trkpt>
      <trkpt lat="50.22851" lon="4.18003">
        <ele>217.4</ele>
        <time>2015-07-11T21:51:54Z</time>
      </trkpt>
      <trkpt lat="50.22879" lon="4.18013">
        <ele>216.43</ele>
        <time>2015-07-11T21:52:04Z</time>
      </trkpt>
      <trkpt lat="50.22918" lon="4.18029">
        <ele>214.03</ele>
        <time>2015-07-11T21:52:17Z</time>
      </trkpt>
      <trkpt lat="50.22951" lon="4.18048">
        <ele>212.59</ele>
        <time>2015-07-11T21:52:24Z</time>
      </trkpt>
      <trkpt lat="50.22956" lon="4.18051">
        <ele>212.59</ele>
        <time>2015-07-11T21:52:25Z</time>
      </trkpt>
      <trkpt lat="50.22961" lon="4.18054">
        <ele>212.11</ele>
        <time>2015-07-11T21:52:26Z</time>
      </trkpt>
      <trkpt lat="50.22966" lon="4.18056">
        <ele>211.63</ele>
        <time>2015-07-11T21:52:27Z</time>
      </trkpt>
      <trkpt lat="50.2297" lon="4.18058">
        <ele>211.63</ele>
        <time>2015-07-11T21:52:28Z</time>
      </trkpt>
      <trkpt lat="50.22975" lon="4.18062">
        <ele>210.67</ele>
        <time>2015-07-11T21:52:29Z</time>
      </trkpt>
      <trkpt lat="50.23006" lon="4.18092">
        <ele>207.3</ele>
        <time>2015-07-11T21:52:39Z</time>
      </trkpt>
      <trkpt lat="50.23025" lon="4.1811">
        <ele>204.42</ele>
        <time>2015-07-11T21:52:46Z</time>
      </trkpt>
      <trkpt lat="50.23028" lon="4.18114">
        <ele>203.94</ele>
        <time>2015-07-11T21:52:47Z</time>
      </trkpt>
      <trkpt lat="50.23032" lon="4.18115">
        <ele>203.46</ele>
        <time>2015-07-11T21:52:48Z</time>
      </trkpt>
      <trkpt lat="50.23035" lon="4.18117">
        <ele>202.98</ele>
        <time>2015-07-11T21:52:49Z</time>
      </trkpt>
      <trkpt lat="50.23039" lon="4.18119">
        <ele>202.98</ele>
        <time>2015-07-11T21:52:50Z</time>
      </trkpt>
      <trkpt lat="50.23073" lon="4.18129">
        <ele>200.09</ele>
        <time>2015-07-11T21:53:00Z</time>
      </trkpt>
      <trkpt lat="50.23085" lon="4.18132">
        <ele>199.61</ele>
        <time>2015-07-11T21:53:03Z</time>
      </trkpt>
      <trkpt lat="50.23089" lon="4.18133">
        <ele>199.13</ele>
        <time>2015-07-11T21:53:04Z</time>
      </trkpt>
      <trkpt lat="50.23134" lon="4.18122">
        <ele>197.69</ele>
        <time>2015-07-11T21:53:15Z</time>
      </trkpt>
      <trkpt lat="50.23152" lon="4.18119">
        <ele>197.21</ele>
        <time>2015-07-11T21:53:23Z</time>
      </trkpt>
      <trkpt lat="50.23196" lon="4.18125">
        <ele>196.25</ele>
        <time>2015-07-11T21:53:36Z</time>
      </trkpt>
      <trkpt lat="50.2324" lon="4.18168">
        <ele>194.8</ele>
        <time>2015-07-11T21:53:50Z</time>
      </trkpt>
      <trkpt lat="50.23269" lon="4.18224">
        <ele>192.88</ele>
        <time>2015-07-11T21:54:01Z</time>
      </trkpt>
      <trkpt lat="50.23278" lon="4.1824">
        <ele>192.88</ele>
        <time>2015-07-11T21:54:04Z</time>
      </trkpt>
      <trkpt lat="50.23281" lon="4.18245">
        <ele>192.4</ele>
        <time>2015-07-11T21:54:05Z</time>
      </trkpt>
      <trkpt lat="50.23293" lon="4.18265">
        <ele>192.4</ele>
        <time>2015-07-11T21:54:09Z</time>
      </trkpt>
      <trkpt lat="50.23297" lon="4.18269">
        <ele>192.4</ele>
        <time>2015-07-11T21:54:10Z</time>
      </trkpt>
      <trkpt lat="50.23322" lon="4.18313">
        <ele>191.44</ele>
        <time>2015-07-11T21:54:19Z</time>
      </trkpt>
      <trkpt lat="50.23374" lon="4.18407">
        <ele>190</ele>
        <time>2015-07-11T21:54:36Z</time>
      </trkpt>
      <trkpt lat="50.2342" lon="4.18484">
        <ele>190</ele>
        <time>2015-07-11T21:54:51Z</time>
      </trkpt>
      <trkpt lat="50.23425" lon="4.18493">
        <ele>190</ele>
        <time>2015-07-11T21:54:53Z</time>
      </trkpt>
      <trkpt lat="50.23448" lon="4.18533">
        <ele>190</ele>
        <time>2015-07-11T21:55:01Z</time>
      </trkpt>
      <trkpt lat="50.23451" lon="4.18538">
        <ele>190</ele>
        <time>2015-07-11T21:55:02Z</time>
      </trkpt>
      <trkpt lat="50.23504" lon="4.18626">
        <ele>190</ele>
        <time>2015-07-11T21:55:19Z</time>
      </trkpt>
      <trkpt lat="50.23523" lon="4.18658">
        <ele>190</ele>
        <time>2015-07-11T21:55:25Z</time>
      </trkpt>
      <trkpt lat="50.23571" lon="4.18741">
        <ele>188.56</ele>
        <time>2015-07-11T21:55:41Z</time>
      </trkpt>
      <trkpt lat="50.23596" lon="4.18782">
        <ele>187.59</ele>
        <time>2015-07-11T21:55:50Z</time>
      </trkpt>
      <trkpt lat="50.23599" lon="4.18787">
        <ele>187.59</ele>
        <time>2015-07-11T21:55:51Z</time>
      </trkpt>
      <trkpt lat="50.23614" lon="4.18814">
        <ele>187.59</ele>
        <time>2015-07-11T21:55:56Z</time>
      </trkpt>
      <trkpt lat="50.23617" lon="4.1882">
        <ele>187.11</ele>
        <time>2015-07-11T21:55:57Z</time>
      </trkpt>
      <trkpt lat="50.23648" lon="4.18877">
        <ele>185.67</ele>
        <time>2015-07-11T21:56:07Z</time>
      </trkpt>
      <trkpt lat="50.23664" lon="4.18908">
        <ele>185.67</ele>
        <time>2015-07-11T21:56:13Z</time>
      </trkpt>
      <trkpt lat="50.23666" lon="4.18915">
        <ele>185.67</ele>
        <time>2015-07-11T21:56:14Z</time>
      </trkpt>
      <trkpt lat="50.23667" lon="4.18922">
        <ele>185.67</ele>
        <time>2015-07-11T21:56:15Z</time>
      </trkpt>
      <trkpt lat="50.23667" lon="4.18929">
        <ele>185.67</ele>
        <time>2015-07-11T21:56:16Z</time>
      </trkpt>
      <trkpt lat="50.23668" lon="4.18936">
        <ele>185.67</ele>
        <time>2015-07-11T21:56:17Z</time>
      </trkpt>
      <trkpt lat="50.23668" lon="4.18943">
        <ele>185.67</ele>
        <time>2015-07-11T21:56:18Z</time>
      </trkpt>
      <trkpt lat="50.2367" lon="4.18992">
        <ele>185.67</ele>
        <time>2015-07-11T21:56:25Z</time>
      </trkpt>
      <trkpt lat="50.23674" lon="4.19005">
        <ele>185.67</ele>
        <time>2015-07-11T21:56:27Z</time>
      </trkpt>
      <trkpt lat="50.23696" lon="4.19062">
        <ele>185.67</ele>
        <time>2015-07-11T21:56:37Z</time>
      </trkpt>
      <trkpt lat="50.23698" lon="4.19067">
        <ele>185.67</ele>
        <time>2015-07-11T21:56:38Z</time>
      </trkpt>
      <trkpt lat="50.23718" lon="4.19129">
        <ele>187.11</ele>
        <time>2015-07-11T21:56:50Z</time>
      </trkpt>
      <trkpt lat="50.23722" lon="4.19141">
        <ele>187.11</ele>
        <time>2015-07-11T21:56:53Z</time>
      </trkpt>
      <trkpt lat="50.23724" lon="4.19143">
        <ele>187.11</ele>
        <time>2015-07-11T21:56:54Z</time>
      </trkpt>
      <trkpt lat="50.23727" lon="4.19145">
        <ele>187.11</ele>
        <time>2015-07-11T21:56:55Z</time>
      </trkpt>
      <trkpt lat="50.23729" lon="4.19145">
        <ele>187.11</ele>
        <time>2015-07-11T21:56:56Z</time>
      </trkpt>
      <trkpt lat="50.23732" lon="4.19145">
        <ele>187.11</ele>
        <time>2015-07-11T21:56:57Z</time>
      </trkpt>
      <trkpt lat="50.23735" lon="4.19144">
        <ele>187.11</ele>
        <time>2015-07-11T21:56:58Z</time>
      </trkpt>
      <trkpt lat="50.23783" lon="4.19135">
        <ele>185.67</ele>
        <time>2015-07-11T21:57:11Z</time>
      </trkpt>
      <trkpt lat="50.23815" lon="4.19126">
        <ele>182.79</ele>
        <time>2015-07-11T21:57:19Z</time>
      </trkpt>
      <trkpt lat="50.23854" lon="4.19118">
        <ele>180.87</ele>
        <time>2015-07-11T21:57:31Z</time>
      </trkpt>
      <trkpt lat="50.23905" lon="4.1909">
        <ele>177.98</ele>
        <time>2015-07-11T21:57:42Z</time>
      </trkpt>
      <trkpt lat="50.23943" lon="4.19064">
        <ele>175.1</ele>
        <time>2015-07-11T21:57:50Z</time>
      </trkpt>
      <trkpt lat="50.2397" lon="4.19046">
        <ele>173.66</ele>
        <time>2015-07-11T21:57:56Z</time>
      </trkpt>
      <trkpt lat="50.23975" lon="4.19045">
        <ele>173.17</ele>
        <time>2015-07-11T21:57:57Z</time>
      </trkpt>
      <trkpt lat="50.2398" lon="4.19044">
        <ele>173.17</ele>
        <time>2015-07-11T21:57:58Z</time>
      </trkpt>
      <trkpt lat="50.23985" lon="4.19044">
        <ele>172.69</ele>
        <time>2015-07-11T21:57:59Z</time>
      </trkpt>
      <trkpt lat="50.2399" lon="4.19044">
        <ele>172.69</ele>
        <time>2015-07-11T21:58:00Z</time>
      </trkpt>
      <trkpt lat="50.23995" lon="4.19045">
        <ele>171.73</ele>
        <time>2015-07-11T21:58:01Z</time>
      </trkpt>
      <trkpt lat="50.24039" lon="4.19053">
        <ele>169.81</ele>
        <time>2015-07-11T21:58:12Z</time>
      </trkpt>
      <trkpt lat="50.24048" lon="4.19048">
        <ele>168.37</ele>
        <time>2015-07-11T21:58:15Z</time>
      </trkpt>
      <trkpt lat="50.24051" lon="4.19043">
        <ele>167.89</ele>
        <time>2015-07-11T21:58:16Z</time>
      </trkpt>
      <trkpt lat="50.24052" lon="4.19038">
        <ele>167.41</ele>
        <time>2015-07-11T21:58:17Z</time>
      </trkpt>
      <trkpt lat="50.24052" lon="4.19031">
        <ele>166.93</ele>
        <time>2015-07-11T21:58:18Z</time>
      </trkpt>
      <trkpt lat="50.24052" lon="4.19026">
        <ele>166.45</ele>
        <time>2015-07-11T21:58:19Z</time>
      </trkpt>
      <trkpt lat="50.2405" lon="4.1902">
        <ele>165.48</ele>
        <time>2015-07-11T21:58:20Z</time>
      </trkpt>
      <trkpt lat="50.24048" lon="4.19015">
        <ele>164.52</ele>
        <time>2015-07-11T21:58:21Z</time>
      </trkpt>
      <trkpt lat="50.24045" lon="4.19011">
        <ele>164.04</ele>
        <time>2015-07-11T21:58:22Z</time>
      </trkpt>
      <trkpt lat="50.24042" lon="4.19006">
        <ele>164.04</ele>
        <time>2015-07-11T21:58:23Z</time>
      </trkpt>
      <trkpt lat="50.2404" lon="4.19">
        <ele>163.08</ele>
        <time>2015-07-11T21:58:24Z</time>
      </trkpt>
      <trkpt lat="50.24038" lon="4.18995">
        <ele>163.08</ele>
        <time>2015-07-11T21:58:25Z</time>
      </trkpt>
      <trkpt lat="50.24035" lon="4.18989">
        <ele>162.6</ele>
        <time>2015-07-11T21:58:26Z</time>
      </trkpt>
      <trkpt lat="50.24033" lon="4.18983">
        <ele>162.6</ele>
        <time>2015-07-11T21:58:27Z</time>
      </trkpt>
      <trkpt lat="50.24033" lon="4.18977">
        <ele>162.12</ele>
        <time>2015-07-11T21:58:28Z</time>
      </trkpt>
      <trkpt lat="50.24033" lon="4.18957">
        <ele>161.16</ele>
        <time>2015-07-11T21:58:31Z</time>
      </trkpt>
      <trkpt lat="50.24035" lon="4.18944">
        <ele>160.68</ele>
        <time>2015-07-11T21:58:33Z</time>
      </trkpt>
      <trkpt lat="50.24039" lon="4.18931">
        <ele>160.2</ele>
        <time>2015-07-11T21:58:36Z</time>
      </trkpt>
      <trkpt lat="50.24042" lon="4.1893">
        <ele>159.72</ele>
        <time>2015-07-11T21:58:37Z</time>
      </trkpt>
      <trkpt lat="50.24045" lon="4.18931">
        <ele>159.72</ele>
        <time>2015-07-11T21:58:38Z</time>
      </trkpt>
      <trkpt lat="50.24047" lon="4.18933">
        <ele>159.24</ele>
        <time>2015-07-11T21:58:39Z</time>
      </trkpt>
      <trkpt lat="50.2405" lon="4.18936">
        <ele>159.24</ele>
        <time>2015-07-11T21:58:40Z</time>
      </trkpt>
      <trkpt lat="50.2407" lon="4.18969">
        <ele>158.75</ele>
        <time>2015-07-11T21:58:48Z</time>
      </trkpt>
      <trkpt lat="50.24072" lon="4.18975">
        <ele>158.75</ele>
        <time>2015-07-11T21:58:49Z</time>
      </trkpt>
      <trkpt lat="50.24074" lon="4.18981">
        <ele>158.27</ele>
        <time>2015-07-11T21:58:50Z</time>
      </trkpt>
      <trkpt lat="50.24075" lon="4.18988">
        <ele>158.27</ele>
        <time>2015-07-11T21:58:51Z</time>
      </trkpt>
      <trkpt lat="50.24076" lon="4.18993">
        <ele>158.27</ele>
        <time>2015-07-11T21:58:52Z</time>
      </trkpt>
      <trkpt lat="50.24077" lon="4.19006">
        <ele>158.27</ele>
        <time>2015-07-11T21:58:54Z</time>
      </trkpt>
      <trkpt lat="50.24078" lon="4.19013">
        <ele>158.27</ele>
        <time>2015-07-11T21:58:55Z</time>
      </trkpt>
      <trkpt lat="50.24078" lon="4.19026">
        <ele>157.79</ele>
        <time>2015-07-11T21:58:57Z</time>
      </trkpt>
      <trkpt lat="50.24078" lon="4.19033">
        <ele>157.79</ele>
        <time>2015-07-11T21:58:58Z</time>
      </trkpt>
      <trkpt lat="50.24069" lon="4.19124">
        <ele>156.83</ele>
        <time>2015-07-11T21:59:08Z</time>
      </trkpt>
      <trkpt lat="50.24066" lon="4.19151">
        <ele>156.83</ele>
        <time>2015-07-11T21:59:11Z</time>
      </trkpt>
      <trkpt lat="50.24055" lon="4.19299">
        <ele>156.83</ele>
        <time>2015-07-11T21:59:27Z</time>
      </trkpt>
      <trkpt lat="50.24043" lon="4.19379">
        <ele>158.75</ele>
        <time>2015-07-11T21:59:38Z</time>
      </trkpt>
      <trkpt lat="50.24035" lon="4.19443">
        <ele>158.75</ele>
        <time>2015-07-11T21:59:47Z</time>
      </trkpt>
      <trkpt lat="50.24027" lon="4.19477">
        <ele>158.75</ele>
        <time>2015-07-11T21:59:52Z</time>
      </trkpt>
      <trkpt lat="50.24026" lon="4.19484">
        <ele>158.75</ele>
        <time>2015-07-11T21:59:53Z</time>
      </trkpt>
      <trkpt lat="50.24024" lon="4.19491">
        <ele>158.75</ele>
        <time>2015-07-11T21:59:54Z</time>
      </trkpt>
      <trkpt lat="50.24023" lon="4.19498">
        <ele>158.75</ele>
        <time>2015-07-11T21:59:55Z</time>
      </trkpt>
      <trkpt lat="50.24022" lon="4.19505">
        <ele>158.75</ele>
        <time>2015-07-11T21:59:56Z</time>
      </trkpt>
      <trkpt lat="50.24021" lon="4.19512">
        <ele>158.75</ele>
        <time>2015-07-11T21:59:57Z</time>
      </trkpt>
      <trkpt lat="50.24005" lon="4.19617">
        <ele>156.83</ele>
        <time>2015-07-11T22:00:10Z</time>
      </trkpt>
      <trkpt lat="50.23995" lon="4.19663">
        <ele>156.83</ele>
        <time>2015-07-11T22:00:15Z</time>
      </trkpt>
      <trkpt lat="50.2399" lon="4.19678">
        <ele>156.83</ele>
        <time>2015-07-11T22:00:17Z</time>
      </trkpt>
      <trkpt lat="50.23986" lon="4.19686">
        <ele>157.31</ele>
        <time>2015-07-11T22:00:18Z</time>
      </trkpt>
      <trkpt lat="50.23971" lon="4.19726">
        <ele>158.27</ele>
        <time>2015-07-11T22:00:24Z</time>
      </trkpt>
      <trkpt lat="50.23969" lon="4.1974">
        <ele>158.27</ele>
        <time>2015-07-11T22:00:26Z</time>
      </trkpt>
      <trkpt lat="50.23965" lon="4.19788">
        <ele>158.75</ele>
        <time>2015-07-11T22:00:33Z</time>
      </trkpt>
      <trkpt lat="50.23965" lon="4.19795">
        <ele>159.24</ele>
        <time>2015-07-11T22:00:34Z</time>
      </trkpt>
      <trkpt lat="50.23951" lon="4.19896">
        <ele>160.68</ele>
        <time>2015-07-11T22:00:49Z</time>
      </trkpt>
      <trkpt lat="50.23953" lon="4.1996">
        <ele>159.24</ele>
        <time>2015-07-11T22:00:57Z</time>
      </trkpt>
      <trkpt lat="50.23952" lon="4.19969">
        <ele>159.24</ele>
        <time>2015-07-11T22:00:58Z</time>
      </trkpt>
      <trkpt lat="50.23952" lon="4.19978">
        <ele>158.75</ele>
        <time>2015-07-11T22:00:59Z</time>
      </trkpt>
      <trkpt lat="50.23933" lon="4.20097">
        <ele>158.75</ele>
        <time>2015-07-11T22:01:12Z</time>
      </trkpt>
      <trkpt lat="50.23932" lon="4.20106">
        <ele>158.75</ele>
        <time>2015-07-11T22:01:13Z</time>
      </trkpt>
      <trkpt lat="50.23913" lon="4.20216">
        <ele>158.75</ele>
        <time>2015-07-11T22:01:26Z</time>
      </trkpt>
      <trkpt lat="50.23909" lon="4.2024">
        <ele>158.75</ele>
        <time>2015-07-11T22:01:29Z</time>
      </trkpt>
      <trkpt lat="50.23902" lon="4.20299">
        <ele>160.2</ele>
        <time>2015-07-11T22:01:37Z</time>
      </trkpt>
      <trkpt lat="50.23902" lon="4.20307">
        <ele>160.2</ele>
        <time>2015-07-11T22:01:38Z</time>
      </trkpt>
      <trkpt lat="50.23902" lon="4.20315">
        <ele>160.2</ele>
        <time>2015-07-11T22:01:39Z</time>
      </trkpt>
      <trkpt lat="50.23891" lon="4.20427">
        <ele>160.2</ele>
        <time>2015-07-11T22:01:53Z</time>
      </trkpt>
      <trkpt lat="50.23888" lon="4.20443">
        <ele>159.24</ele>
        <time>2015-07-11T22:01:55Z</time>
      </trkpt>
      <trkpt lat="50.23884" lon="4.2046">
        <ele>159.24</ele>
        <time>2015-07-11T22:01:57Z</time>
      </trkpt>
      <trkpt lat="50.23882" lon="4.20468">
        <ele>159.24</ele>
        <time>2015-07-11T22:01:58Z</time>
      </trkpt>
      <trkpt lat="50.23834" lon="4.20578">
        <ele>159.24</ele>
        <time>2015-07-11T22:02:13Z</time>
      </trkpt>
      <trkpt lat="50.23812" lon="4.20622">
        <ele>159.24</ele>
        <time>2015-07-11T22:02:19Z</time>
      </trkpt>
      <trkpt lat="50.2381" lon="4.20631">
        <ele>159.24</ele>
        <time>2015-07-11T22:02:20Z</time>
      </trkpt>
      <trkpt lat="50.23808" lon="4.2064">
        <ele>158.75</ele>
        <time>2015-07-11T22:02:21Z</time>
      </trkpt>
      <trkpt lat="50.23795" lon="4.20698">
        <ele>157.79</ele>
        <time>2015-07-11T22:02:27Z</time>
      </trkpt>
      <trkpt lat="50.23794" lon="4.20715">
        <ele>157.79</ele>
        <time>2015-07-11T22:02:29Z</time>
      </trkpt>
      <trkpt lat="50.23795" lon="4.20723">
        <ele>157.31</ele>
        <time>2015-07-11T22:02:30Z</time>
      </trkpt>
      <trkpt lat="50.23798" lon="4.20729">
        <ele>157.31</ele>
        <time>2015-07-11T22:02:31Z</time>
      </trkpt>
      <trkpt lat="50.23802" lon="4.20734">
        <ele>157.31</ele>
        <time>2015-07-11T22:02:32Z</time>
      </trkpt>
      <trkpt lat="50.23806" lon="4.20737">
        <ele>157.31</ele>
        <time>2015-07-11T22:02:33Z</time>
      </trkpt>
      <trkpt lat="50.23811" lon="4.20739">
        <ele>157.31</ele>
        <time>2015-07-11T22:02:34Z</time>
      </trkpt>
      <trkpt lat="50.23815" lon="4.20741">
        <ele>156.83</ele>
        <time>2015-07-11T22:02:35Z</time>
      </trkpt>
      <trkpt lat="50.23848" lon="4.20764">
        <ele>156.83</ele>
        <time>2015-07-11T22:02:43Z</time>
      </trkpt>
      <trkpt lat="50.23882" lon="4.20817">
        <ele>157.31</ele>
        <time>2015-07-11T22:02:56Z</time>
      </trkpt>
      <trkpt lat="50.23891" lon="4.2083">
        <ele>158.27</ele>
        <time>2015-07-11T22:03:01Z</time>
      </trkpt>
      <trkpt lat="50.23895" lon="4.2083">
        <ele>158.27</ele>
        <time>2015-07-11T22:03:03Z</time>
      </trkpt>
      <trkpt lat="50.23896" lon="4.20828">
        <ele>158.27</ele>
        <time>2015-07-11T22:03:04Z</time>
      </trkpt>
      <trkpt lat="50.23898" lon="4.20826">
        <ele>158.27</ele>
        <time>2015-07-11T22:03:05Z</time>
      </trkpt>
      <trkpt lat="50.23928" lon="4.20759">
        <ele>158.27</ele>
        <time>2015-07-11T22:03:20Z</time>
      </trkpt>
      <trkpt lat="50.23942" lon="4.2072">
        <ele>158.27</ele>
        <time>2015-07-11T22:03:26Z</time>
      </trkpt>
      <trkpt lat="50.23992" lon="4.20635">
        <ele>158.27</ele>
        <time>2015-07-11T22:03:40Z</time>
      </trkpt>
      <trkpt lat="50.24002" lon="4.20603">
        <ele>158.75</ele>
        <time>2015-07-11T22:03:46Z</time>
      </trkpt>
      <trkpt lat="50.24004" lon="4.20596">
        <ele>158.75</ele>
        <time>2015-07-11T22:03:47Z</time>
      </trkpt>
      <trkpt lat="50.24008" lon="4.20573">
        <ele>158.75</ele>
        <time>2015-07-11T22:03:50Z</time>
      </trkpt>
      <trkpt lat="50.24014" lon="4.20543">
        <ele>157.31</ele>
        <time>2015-07-11T22:03:54Z</time>
      </trkpt>
      <trkpt lat="50.24018" lon="4.20503">
        <ele>157.31</ele>
        <time>2015-07-11T22:03:59Z</time>
      </trkpt>
      <trkpt lat="50.24021" lon="4.2047">
        <ele>157.31</ele>
        <time>2015-07-11T22:04:03Z</time>
      </trkpt>
      <trkpt lat="50.24023" lon="4.20453">
        <ele>157.31</ele>
        <time>2015-07-11T22:04:05Z</time>
      </trkpt>
      <trkpt lat="50.24031" lon="4.20414">
        <ele>157.31</ele>
        <time>2015-07-11T22:04:11Z</time>
      </trkpt>
      <trkpt lat="50.24038" lon="4.20389">
        <ele>158.75</ele>
        <time>2015-07-11T22:04:16Z</time>
      </trkpt>
      <trkpt lat="50.24042" lon="4.20343">
        <ele>159.24</ele>
        <time>2015-07-11T22:04:25Z</time>
      </trkpt>
      <trkpt lat="50.24038" lon="4.20305">
        <ele>159.24</ele>
        <time>2015-07-11T22:04:33Z</time>
      </trkpt>
      <trkpt lat="50.24038" lon="4.20252">
        <ele>156.83</ele>
        <time>2015-07-11T22:04:44Z</time>
      </trkpt>
      <trkpt lat="50.2404" lon="4.20223">
        <ele>156.35</ele>
        <time>2015-07-11T22:04:48Z</time>
      </trkpt>
      <trkpt lat="50.24044" lon="4.20158">
        <ele>155.87</ele>
        <time>2015-07-11T22:04:59Z</time>
      </trkpt>
      <trkpt lat="50.24054" lon="4.20074">
        <ele>155.87</ele>
        <time>2015-07-11T22:05:11Z</time>
      </trkpt>
      <trkpt lat="50.24055" lon="4.20058">
        <ele>155.87</ele>
        <time>2015-07-11T22:05:13Z</time>
      </trkpt>
      <trkpt lat="50.24069" lon="4.19996">
        <ele>158.27</ele>
        <time>2015-07-11T22:05:23Z</time>
      </trkpt>
      <trkpt lat="50.2407" lon="4.19948">
        <ele>156.83</ele>
        <time>2015-07-11T22:05:31Z</time>
      </trkpt>
      <trkpt lat="50.24071" lon="4.19943">
        <ele>156.83</ele>
        <time>2015-07-11T22:05:33Z</time>
      </trkpt>
      <trkpt lat="50.24074" lon="4.1993">
        <ele>158.27</ele>
        <time>2015-07-11T22:05:39Z</time>
      </trkpt>
      <trkpt lat="50.2408" lon="4.19906">
        <ele>160.2</ele>
        <time>2015-07-11T22:05:49Z</time>
      </trkpt>
      <trkpt lat="50.24086" lon="4.1988">
        <ele>163.08</ele>
        <time>2015-07-11T22:05:58Z</time>
      </trkpt>
      <trkpt lat="50.24091" lon="4.19862">
        <ele>164.52</ele>
        <time>2015-07-11T22:06:10Z</time>
      </trkpt>
      <trkpt lat="50.24095" lon="4.19853">
        <ele>166.45</ele>
        <time>2015-07-11T22:06:23Z</time>
      </trkpt>
      <trkpt lat="50.24101" lon="4.19826">
        <ele>166.93</ele>
        <time>2015-07-11T22:06:35Z</time>
      </trkpt>
      <trkpt lat="50.24109" lon="4.19794">
        <ele>167.41</ele>
        <time>2015-07-11T22:06:47Z</time>
      </trkpt>
      <trkpt lat="50.24113" lon="4.19779">
        <ele>167.89</ele>
        <time>2015-07-11T22:06:52Z</time>
      </trkpt>
      <trkpt lat="50.24114" lon="4.19775">
        <ele>167.89</ele>
        <time>2015-07-11T22:06:53Z</time>
      </trkpt>
      <trkpt lat="50.2413" lon="4.19716">
        <ele>167.89</ele>
        <time>2015-07-11T22:07:04Z</time>
      </trkpt>
      <trkpt lat="50.24131" lon="4.1971">
        <ele>167.89</ele>
        <time>2015-07-11T22:07:05Z</time>
      </trkpt>
      <trkpt lat="50.24139" lon="4.19683">
        <ele>166.45</ele>
        <time>2015-07-11T22:07:09Z</time>
      </trkpt>
      <trkpt lat="50.24141" lon="4.19676">
        <ele>166.45</ele>
        <time>2015-07-11T22:07:10Z</time>
      </trkpt>
      <trkpt lat="50.24143" lon="4.19669">
        <ele>166.45</ele>
        <time>2015-07-11T22:07:11Z</time>
      </trkpt>
      <trkpt lat="50.24145" lon="4.19663">
        <ele>166.45</ele>
        <time>2015-07-11T22:07:12Z</time>
      </trkpt>
      <trkpt lat="50.24153" lon="4.19635">
        <ele>166.45</ele>
        <time>2015-07-11T22:07:16Z</time>
      </trkpt>
      <trkpt lat="50.24155" lon="4.19627">
        <ele>166.45</ele>
        <time>2015-07-11T22:07:17Z</time>
      </trkpt>
      <trkpt lat="50.24162" lon="4.19596">
        <ele>166.45</ele>
        <time>2015-07-11T22:07:21Z</time>
      </trkpt>
      <trkpt lat="50.2418" lon="4.19532">
        <ele>165.96</ele>
        <time>2015-07-11T22:07:32Z</time>
      </trkpt>
      <trkpt lat="50.24188" lon="4.19506">
        <ele>165.96</ele>
        <time>2015-07-11T22:07:36Z</time>
      </trkpt>
      <trkpt lat="50.2419" lon="4.19498">
        <ele>165.96</ele>
        <time>2015-07-11T22:07:37Z</time>
      </trkpt>
      <trkpt lat="50.24192" lon="4.19491">
        <ele>165.96</ele>
        <time>2015-07-11T22:07:38Z</time>
      </trkpt>
      <trkpt lat="50.24193" lon="4.19483">
        <ele>165.96</ele>
        <time>2015-07-11T22:07:39Z</time>
      </trkpt>
      <trkpt lat="50.24195" lon="4.19476">
        <ele>165.96</ele>
        <time>2015-07-11T22:07:40Z</time>
      </trkpt>
      <trkpt lat="50.24212" lon="4.1939">
        <ele>164.04</ele>
        <time>2015-07-11T22:07:50Z</time>
      </trkpt>
      <trkpt lat="50.24224" lon="4.19329">
        <ele>163.08</ele>
        <time>2015-07-11T22:07:57Z</time>
      </trkpt>
      <trkpt lat="50.24228" lon="4.1929">
        <ele>161.64</ele>
        <time>2015-07-11T22:08:01Z</time>
      </trkpt>
      <trkpt lat="50.24229" lon="4.19273">
        <ele>161.64</ele>
        <time>2015-07-11T22:08:06Z</time>
      </trkpt>
      <trkpt lat="50.24228" lon="4.1927">
        <ele>160.68</ele>
        <time>2015-07-11T22:08:08Z</time>
      </trkpt>
      <trkpt lat="50.24228" lon="4.19267">
        <ele>160.68</ele>
        <time>2015-07-11T22:08:09Z</time>
      </trkpt>
      <trkpt lat="50.24228" lon="4.19264">
        <ele>160.68</ele>
        <time>2015-07-11T22:08:10Z</time>
      </trkpt>
      <trkpt lat="50.24228" lon="4.1926">
        <ele>160.68</ele>
        <time>2015-07-11T22:08:11Z</time>
      </trkpt>
      <trkpt lat="50.24229" lon="4.19256">
        <ele>160.68</ele>
        <time>2015-07-11T22:08:12Z</time>
      </trkpt>
      <trkpt lat="50.24229" lon="4.19251">
        <ele>160.68</ele>
        <time>2015-07-11T22:08:13Z</time>
      </trkpt>
      <trkpt lat="50.24229" lon="4.19246">
        <ele>160.68</ele>
        <time>2015-07-11T22:08:14Z</time>
      </trkpt>
      <trkpt lat="50.24229" lon="4.1924">
        <ele>160.68</ele>
        <time>2015-07-11T22:08:15Z</time>
      </trkpt>
      <trkpt lat="50.2423" lon="4.19234">
        <ele>160.68</ele>
        <time>2015-07-11T22:08:16Z</time>
      </trkpt>
      <trkpt lat="50.24231" lon="4.1922">
        <ele>160.68</ele>
        <time>2015-07-11T22:08:18Z</time>
      </trkpt>
      <trkpt lat="50.24232" lon="4.19212">
        <ele>160.68</ele>
        <time>2015-07-11T22:08:19Z</time>
      </trkpt>
      <trkpt lat="50.24236" lon="4.19174">
        <ele>158.75</ele>
        <time>2015-07-11T22:08:23Z</time>
      </trkpt>
      <trkpt lat="50.24237" lon="4.19165">
        <ele>158.75</ele>
        <time>2015-07-11T22:08:24Z</time>
      </trkpt>
      <trkpt lat="50.24238" lon="4.19147">
        <ele>158.75</ele>
        <time>2015-07-11T22:08:26Z</time>
      </trkpt>
      <trkpt lat="50.24243" lon="4.19095">
        <ele>160.2</ele>
        <time>2015-07-11T22:08:33Z</time>
      </trkpt>
      <trkpt lat="50.24242" lon="4.19061">
        <ele>160.68</ele>
        <time>2015-07-11T22:08:38Z</time>
      </trkpt>
      <trkpt lat="50.2424" lon="4.19054">
        <ele>160.68</ele>
        <time>2015-07-11T22:08:39Z</time>
      </trkpt>
      <trkpt lat="50.24238" lon="4.19045">
        <ele>160.68</ele>
        <time>2015-07-11T22:08:40Z</time>
      </trkpt>
      <trkpt lat="50.24232" lon="4.19029">
        <ele>157.31</ele>
        <time>2015-07-11T22:08:42Z</time>
      </trkpt>
      <trkpt lat="50.24229" lon="4.19014">
        <ele>155.87</ele>
        <time>2015-07-11T22:08:44Z</time>
      </trkpt>
      <trkpt lat="50.24225" lon="4.18994">
        <ele>154.43</ele>
        <time>2015-07-11T22:08:46Z</time>
      </trkpt>
      <trkpt lat="50.24224" lon="4.18984">
        <ele>154.43</ele>
        <time>2015-07-11T22:08:47Z</time>
      </trkpt>
      <trkpt lat="50.2422" lon="4.18967">
        <ele>153.95</ele>
        <time>2015-07-11T22:08:49Z</time>
      </trkpt>
      <trkpt lat="50.24216" lon="4.18959">
        <ele>153.95</ele>
        <time>2015-07-11T22:08:50Z</time>
      </trkpt>
      <trkpt lat="50.24213" lon="4.18953">
        <ele>152.99</ele>
        <time>2015-07-11T22:08:51Z</time>
      </trkpt>
      <trkpt lat="50.24211" lon="4.18949">
        <ele>152.99</ele>
        <time>2015-07-11T22:08:52Z</time>
      </trkpt>
      <trkpt lat="50.24209" lon="4.18946">
        <ele>152.99</ele>
        <time>2015-07-11T22:08:53Z</time>
      </trkpt>
      <trkpt lat="50.24204" lon="4.18942">
        <ele>152.51</ele>
        <time>2015-07-11T22:09:05Z</time>
      </trkpt>
      <trkpt lat="50.24191" lon="4.18927">
        <ele>152.51</ele>
        <time>2015-07-11T22:09:19Z</time>
      </trkpt>
      <trkpt lat="50.24181" lon="4.18915">
        <ele>152.03</ele>
        <time>2015-07-11T22:09:22Z</time>
      </trkpt>
      <trkpt lat="50.24178" lon="4.18909">
        <ele>151.54</ele>
        <time>2015-07-11T22:09:23Z</time>
      </trkpt>
      <trkpt lat="50.24168" lon="4.18887">
        <ele>150.58</ele>
        <time>2015-07-11T22:09:26Z</time>
      </trkpt>
      <trkpt lat="50.24155" lon="4.18858">
        <ele>150.58</ele>
        <time>2015-07-11T22:09:30Z</time>
      </trkpt>
      <trkpt lat="50.24139" lon="4.18833">
        <ele>150.58</ele>
        <time>2015-07-11T22:09:35Z</time>
      </trkpt>
      <trkpt lat="50.24134" lon="4.18827">
        <ele>150.58</ele>
        <time>2015-07-11T22:09:36Z</time>
      </trkpt>
      <trkpt lat="50.24129" lon="4.18823">
        <ele>150.58</ele>
        <time>2015-07-11T22:09:37Z</time>
      </trkpt>
      <trkpt lat="50.24075" lon="4.18772">
        <ele>150.58</ele>
        <time>2015-07-11T22:09:49Z</time>
      </trkpt>
      <trkpt lat="50.24072" lon="4.18768">
        <ele>150.58</ele>
        <time>2015-07-11T22:09:50Z</time>
      </trkpt>
      <trkpt lat="50.24069" lon="4.18762">
        <ele>152.03</ele>
        <time>2015-07-11T22:09:51Z</time>
      </trkpt>
      <trkpt lat="50.24068" lon="4.18758">
        <ele>152.03</ele>
        <time>2015-07-11T22:09:52Z</time>
      </trkpt>
      <trkpt lat="50.24067" lon="4.18751">
        <ele>152.51</ele>
        <time>2015-07-11T22:09:53Z</time>
      </trkpt>
      <trkpt lat="50.24067" lon="4.18746">
        <ele>152.51</ele>
        <time>2015-07-11T22:09:54Z</time>
      </trkpt>
      <trkpt lat="50.24067" lon="4.18742">
        <ele>152.51</ele>
        <time>2015-07-11T22:09:55Z</time>
      </trkpt>
      <trkpt lat="50.24066" lon="4.18736">
        <ele>153.47</ele>
        <time>2015-07-11T22:09:56Z</time>
      </trkpt>
      <trkpt lat="50.24066" lon="4.18733">
        <ele>153.47</ele>
        <time>2015-07-11T22:09:57Z</time>
      </trkpt>
      <trkpt lat="50.24067" lon="4.18728">
        <ele>153.95</ele>
        <time>2015-07-11T22:09:58Z</time>
      </trkpt>
      <trkpt lat="50.24066" lon="4.18711">
        <ele>154.91</ele>
        <time>2015-07-11T22:10:03Z</time>
      </trkpt>
      <trkpt lat="50.24065" lon="4.18708">
        <ele>154.91</ele>
        <time>2015-07-11T22:10:04Z</time>
      </trkpt>
      <trkpt lat="50.24063" lon="4.18708">
        <ele>155.87</ele>
        <time>2015-07-11T22:10:05Z</time>
      </trkpt>
      <trkpt lat="50.24062" lon="4.1871">
        <ele>156.35</ele>
        <time>2015-07-11T22:10:06Z</time>
      </trkpt>
      <trkpt lat="50.2406" lon="4.18713">
        <ele>156.35</ele>
        <time>2015-07-11T22:10:07Z</time>
      </trkpt>
      <trkpt lat="50.2406" lon="4.18716">
        <ele>156.35</ele>
        <time>2015-07-11T22:10:08Z</time>
      </trkpt>
      <trkpt lat="50.24046" lon="4.18759">
        <ele>158.27</ele>
        <time>2015-07-11T22:10:22Z</time>
      </trkpt>
      <trkpt lat="50.24021" lon="4.18796">
        <ele>158.27</ele>
        <time>2015-07-11T22:10:36Z</time>
      </trkpt>
      <trkpt lat="50.23994" lon="4.18794">
        <ele>158.27</ele>
        <time>2015-07-11T22:10:47Z</time>
      </trkpt>
      <trkpt lat="50.23957" lon="4.1877">
        <ele>160.68</ele>
        <time>2015-07-11T22:11:04Z</time>
      </trkpt>
      <trkpt lat="50.23933" lon="4.1874">
        <ele>164.04</ele>
        <time>2015-07-11T22:11:16Z</time>
      </trkpt>
      <trkpt lat="50.23906" lon="4.18723">
        <ele>165.96</ele>
        <time>2015-07-11T22:11:27Z</time>
      </trkpt>
      <trkpt lat="50.23876" lon="4.18721">
        <ele>166.93</ele>
        <time>2015-07-11T22:11:39Z</time>
      </trkpt>
      <trkpt lat="50.23837" lon="4.18695">
        <ele>167.89</ele>
        <time>2015-07-11T22:11:53Z</time>
      </trkpt>
      <trkpt lat="50.23828" lon="4.18675">
        <ele>168.85</ele>
        <time>2015-07-11T22:12:01Z</time>
      </trkpt>
      <trkpt lat="50.23826" lon="4.18673">
        <ele>168.85</ele>
        <time>2015-07-11T22:12:02Z</time>
      </trkpt>
      <trkpt lat="50.23822" lon="4.18662">
        <ele>169.81</ele>
        <time>2015-07-11T22:12:07Z</time>
      </trkpt>
      <trkpt lat="50.23822" lon="4.1866">
        <ele>169.81</ele>
        <time>2015-07-11T22:12:08Z</time>
      </trkpt>
      <trkpt lat="50.23821" lon="4.18659">
        <ele>170.29</ele>
        <time>2015-07-11T22:12:09Z</time>
      </trkpt>
      <trkpt lat="50.23819" lon="4.1865">
        <ele>171.25</ele>
        <time>2015-07-11T22:12:14Z</time>
      </trkpt>
      <trkpt lat="50.23819" lon="4.18648">
        <ele>171.25</ele>
        <time>2015-07-11T22:12:15Z</time>
      </trkpt>
      <trkpt lat="50.23818" lon="4.18646">
        <ele>171.25</ele>
        <time>2015-07-11T22:12:16Z</time>
      </trkpt>
      <trkpt lat="50.23817" lon="4.18645">
        <ele>171.73</ele>
        <time>2015-07-11T22:12:17Z</time>
      </trkpt>
      <trkpt lat="50.23817" lon="4.18643">
        <ele>172.21</ele>
        <time>2015-07-11T22:12:18Z</time>
      </trkpt>
      <trkpt lat="50.23805" lon="4.18607">
        <ele>174.62</ele>
        <time>2015-07-11T22:12:34Z</time>
      </trkpt>
      <trkpt lat="50.23791" lon="4.18569">
        <ele>177.02</ele>
        <time>2015-07-11T22:12:49Z</time>
      </trkpt>
      <trkpt lat="50.2379" lon="4.18564">
        <ele>177.02</ele>
        <time>2015-07-11T22:12:51Z</time>
      </trkpt>
      <trkpt lat="50.23789" lon="4.18561">
        <ele>177.5</ele>
        <time>2015-07-11T22:12:52Z</time>
      </trkpt>
      <trkpt lat="50.23789" lon="4.18559">
        <ele>177.5</ele>
        <time>2015-07-11T22:12:53Z</time>
      </trkpt>
      <trkpt lat="50.23788" lon="4.18556">
        <ele>177.5</ele>
        <time>2015-07-11T22:12:54Z</time>
      </trkpt>
      <trkpt lat="50.23788" lon="4.18553">
        <ele>177.5</ele>
        <time>2015-07-11T22:12:55Z</time>
      </trkpt>
      <trkpt lat="50.23788" lon="4.18551">
        <ele>177.98</ele>
        <time>2015-07-11T22:12:56Z</time>
      </trkpt>
      <trkpt lat="50.23787" lon="4.18548">
        <ele>177.98</ele>
        <time>2015-07-11T22:12:57Z</time>
      </trkpt>
      <trkpt lat="50.23787" lon="4.18546">
        <ele>177.98</ele>
        <time>2015-07-11T22:12:58Z</time>
      </trkpt>
      <trkpt lat="50.23787" lon="4.18544">
        <ele>178.46</ele>
        <time>2015-07-11T22:12:59Z</time>
      </trkpt>
      <trkpt lat="50.23787" lon="4.18542">
        <ele>178.46</ele>
        <time>2015-07-11T22:13:00Z</time>
      </trkpt>
      <trkpt lat="50.23787" lon="4.18539">
        <ele>178.46</ele>
        <time>2015-07-11T22:13:01Z</time>
      </trkpt>
      <trkpt lat="50.23787" lon="4.18537">
        <ele>178.94</ele>
        <time>2015-07-11T22:13:02Z</time>
      </trkpt>
      <trkpt lat="50.23787" lon="4.18534">
        <ele>178.94</ele>
        <time>2015-07-11T22:13:03Z</time>
      </trkpt>
      <trkpt lat="50.23787" lon="4.18532">
        <ele>178.94</ele>
        <time>2015-07-11T22:13:04Z</time>
      </trkpt>
      <trkpt lat="50.23787" lon="4.18529">
        <ele>178.94</ele>
        <time>2015-07-11T22:13:05Z</time>
      </trkpt>
      <trkpt lat="50.23787" lon="4.18527">
        <ele>178.94</ele>
        <time>2015-07-11T22:13:06Z</time>
      </trkpt>
      <trkpt lat="50.23787" lon="4.18525">
        <ele>179.42</ele>
        <time>2015-07-11T22:13:07Z</time>
      </trkpt>
      <trkpt lat="50.23787" lon="4.18522">
        <ele>179.42</ele>
        <time>2015-07-11T22:13:08Z</time>
      </trkpt>
      <trkpt lat="50.23788" lon="4.18491">
        <ele>180.38</ele>
        <time>2015-07-11T22:13:22Z</time>
      </trkpt>
      <trkpt lat="50.23788" lon="4.18488">
        <ele>180.38</ele>
        <time>2015-07-11T22:13:39Z</time>
      </trkpt>
      <trkpt lat="50.23787" lon="4.18482">
        <ele>180.87</ele>
        <time>2015-07-11T22:14:04Z</time>
      </trkpt>
      <trkpt lat="50.23792" lon="4.18439">
        <ele>182.31</ele>
        <time>2015-07-11T22:14:18Z</time>
      </trkpt>
      <trkpt lat="50.23805" lon="4.18397">
        <ele>183.27</ele>
        <time>2015-07-11T22:14:31Z</time>
      </trkpt>
      <trkpt lat="50.23817" lon="4.18358">
        <ele>183.75</ele>
        <time>2015-07-11T22:14:42Z</time>
      </trkpt>
      <trkpt lat="50.23831" lon="4.18315">
        <ele>184.23</ele>
        <time>2015-07-11T22:14:54Z</time>
      </trkpt>
      <trkpt lat="50.23855" lon="4.18256">
        <ele>184.23</ele>
        <time>2015-07-11T22:15:08Z</time>
      </trkpt>
      <trkpt lat="50.23879" lon="4.18204">
        <ele>182.79</ele>
        <time>2015-07-11T22:15:20Z</time>
      </trkpt>
      <trkpt lat="50.23914" lon="4.18124">
        <ele>179.42</ele>
        <time>2015-07-11T22:15:34Z</time>
      </trkpt>
      <trkpt lat="50.23945" lon="4.18053">
        <ele>178.94</ele>
        <time>2015-07-11T22:15:48Z</time>
      </trkpt>
      <trkpt lat="50.23986" lon="4.17961">
        <ele>178.46</ele>
        <time>2015-07-11T22:16:06Z</time>
      </trkpt>
      <trkpt lat="50.23994" lon="4.17943">
        <ele>178.46</ele>
        <time>2015-07-11T22:16:11Z</time>
      </trkpt>
      <trkpt lat="50.23996" lon="4.17943">
        <ele>178.46</ele>
        <time>2015-07-11T22:16:12Z</time>
      </trkpt>
      <trkpt lat="50.24004" lon="4.17961">
        <ele>178.46</ele>
        <time>2015-07-11T22:16:17Z</time>
      </trkpt>
      <trkpt lat="50.24038" lon="4.18026">
        <ele>175.1</ele>
        <time>2015-07-11T22:16:30Z</time>
      </trkpt>
      <trkpt lat="50.24049" lon="4.18051">
        <ele>173.66</ele>
        <time>2015-07-11T22:16:34Z</time>
      </trkpt>
      <trkpt lat="50.24063" lon="4.1808">
        <ele>171.73</ele>
        <time>2015-07-11T22:16:39Z</time>
      </trkpt>
      <trkpt lat="50.24075" lon="4.18108">
        <ele>170.29</ele>
        <time>2015-07-11T22:16:46Z</time>
      </trkpt>
      <trkpt lat="50.24075" lon="4.18124">
        <ele>168.85</ele>
        <time>2015-07-11T22:16:54Z</time>
      </trkpt>
      <trkpt lat="50.24077" lon="4.18127">
        <ele>168.85</ele>
        <time>2015-07-11T22:16:56Z</time>
      </trkpt>
      <trkpt lat="50.2409" lon="4.18137">
        <ele>167.89</ele>
        <time>2015-07-11T22:17:02Z</time>
      </trkpt>
      <trkpt lat="50.24097" lon="4.18136">
        <ele>167.89</ele>
        <time>2015-07-11T22:17:06Z</time>
      </trkpt>
      <trkpt lat="50.24113" lon="4.18115">
        <ele>167.89</ele>
        <time>2015-07-11T22:17:16Z</time>
      </trkpt>
      <trkpt lat="50.24107" lon="4.18103">
        <ele>167.41</ele>
        <time>2015-07-11T22:17:25Z</time>
      </trkpt>
      <trkpt lat="50.24106" lon="4.18102">
        <ele>167.41</ele>
        <time>2015-07-11T22:17:26Z</time>
      </trkpt>
      <trkpt lat="50.24097" lon="4.18086">
        <ele>165</ele>
        <time>2015-07-11T22:17:36Z</time>
      </trkpt>
      <trkpt lat="50.24101" lon="4.18068">
        <ele>161.64</ele>
        <time>2015-07-11T22:17:45Z</time>
      </trkpt>
      <trkpt lat="50.24102" lon="4.18063">
        <ele>161.16</ele>
        <time>2015-07-11T22:17:47Z</time>
      </trkpt>
      <trkpt lat="50.24105" lon="4.18032">
        <ele>159.72</ele>
        <time>2015-07-11T22:17:56Z</time>
      </trkpt>
      <trkpt lat="50.24107" lon="4.18013">
        <ele>158.27</ele>
        <time>2015-07-11T22:18:01Z</time>
      </trkpt>
      <trkpt lat="50.24111" lon="4.17995">
        <ele>157.79</ele>
        <time>2015-07-11T22:18:13Z</time>
      </trkpt>
      <trkpt lat="50.24114" lon="4.17989">
        <ele>158.75</ele>
        <time>2015-07-11T22:18:20Z</time>
      </trkpt>
      <trkpt lat="50.24118" lon="4.17981">
        <ele>160.68</ele>
        <time>2015-07-11T22:18:30Z</time>
      </trkpt>
      <trkpt lat="50.24115" lon="4.17976">
        <ele>163.08</ele>
        <time>2015-07-11T22:18:42Z</time>
      </trkpt>
      <trkpt lat="50.24114" lon="4.17973">
        <ele>163.08</ele>
        <time>2015-07-11T22:18:46Z</time>
      </trkpt>
      <trkpt lat="50.24114" lon="4.17965">
        <ele>163.56</ele>
        <time>2015-07-11T22:18:53Z</time>
      </trkpt>
      <trkpt lat="50.24112" lon="4.17942">
        <ele>161.64</ele>
        <time>2015-07-11T22:19:00Z</time>
      </trkpt>
      <trkpt lat="50.24115" lon="4.17904">
        <ele>163.08</ele>
        <time>2015-07-11T22:19:12Z</time>
      </trkpt>
      <trkpt lat="50.24117" lon="4.17892">
        <ele>163.56</ele>
        <time>2015-07-11T22:19:16Z</time>
      </trkpt>
      <trkpt lat="50.2412" lon="4.1787">
        <ele>163.56</ele>
        <time>2015-07-11T22:19:23Z</time>
      </trkpt>
      <trkpt lat="50.2412" lon="4.17864">
        <ele>163.56</ele>
        <time>2015-07-11T22:19:24Z</time>
      </trkpt>
      <trkpt lat="50.2412" lon="4.17859">
        <ele>163.56</ele>
        <time>2015-07-11T22:19:25Z</time>
      </trkpt>
      <trkpt lat="50.24119" lon="4.17853">
        <ele>163.56</ele>
        <time>2015-07-11T22:19:26Z</time>
      </trkpt>
      <trkpt lat="50.24119" lon="4.17849">
        <ele>163.56</ele>
        <time>2015-07-11T22:19:27Z</time>
      </trkpt>
      <trkpt lat="50.24116" lon="4.1784">
        <ele>163.56</ele>
        <time>2015-07-11T22:19:30Z</time>
      </trkpt>
      <trkpt lat="50.24116" lon="4.17837">
        <ele>163.56</ele>
        <time>2015-07-11T22:19:31Z</time>
      </trkpt>
      <trkpt lat="50.24115" lon="4.17835">
        <ele>163.56</ele>
        <time>2015-07-11T22:19:32Z</time>
      </trkpt>
      <trkpt lat="50.24114" lon="4.17832">
        <ele>164.04</ele>
        <time>2015-07-11T22:19:33Z</time>
      </trkpt>
      <trkpt lat="50.24113" lon="4.17829">
        <ele>164.04</ele>
        <time>2015-07-11T22:19:34Z</time>
      </trkpt>
      <trkpt lat="50.24112" lon="4.17825">
        <ele>164.04</ele>
        <time>2015-07-11T22:19:35Z</time>
      </trkpt>
      <trkpt lat="50.24098" lon="4.17775">
        <ele>167.41</ele>
        <time>2015-07-11T22:19:48Z</time>
      </trkpt>
      <trkpt lat="50.24081" lon="4.17705">
        <ele>168.85</ele>
        <time>2015-07-11T22:20:05Z</time>
      </trkpt>
      <trkpt lat="50.2406" lon="4.17631">
        <ele>169.81</ele>
        <time>2015-07-11T22:20:21Z</time>
      </trkpt>
      <trkpt lat="50.24065" lon="4.17588">
        <ele>170.77</ele>
        <time>2015-07-11T22:20:32Z</time>
      </trkpt>
      <trkpt lat="50.24075" lon="4.17539">
        <ele>173.17</ele>
        <time>2015-07-11T22:20:45Z</time>
      </trkpt>
      <trkpt lat="50.24073" lon="4.17506">
        <ele>175.1</ele>
        <time>2015-07-11T22:20:56Z</time>
      </trkpt>
      <trkpt lat="50.24073" lon="4.17503">
        <ele>175.58</ele>
        <time>2015-07-11T22:20:57Z</time>
      </trkpt>
      <trkpt lat="50.24074" lon="4.17489">
        <ele>176.54</ele>
        <time>2015-07-11T22:21:04Z</time>
      </trkpt>
      <trkpt lat="50.24074" lon="4.17485">
        <ele>177.02</ele>
        <time>2015-07-11T22:21:06Z</time>
      </trkpt>
      <trkpt lat="50.24078" lon="4.17446">
        <ele>179.42</ele>
        <time>2015-07-11T22:21:21Z</time>
      </trkpt>
      <trkpt lat="50.24082" lon="4.17417">
        <ele>180.38</ele>
        <time>2015-07-11T22:21:33Z</time>
      </trkpt>
      <trkpt lat="50.24083" lon="4.17415">
        <ele>180.87</ele>
        <time>2015-07-11T22:21:34Z</time>
      </trkpt>
      <trkpt lat="50.24083" lon="4.17413">
        <ele>180.87</ele>
        <time>2015-07-11T22:21:35Z</time>
      </trkpt>
      <trkpt lat="50.24084" lon="4.1741">
        <ele>180.87</ele>
        <time>2015-07-11T22:21:36Z</time>
      </trkpt>
      <trkpt lat="50.24084" lon="4.17408">
        <ele>181.35</ele>
        <time>2015-07-11T22:21:37Z</time>
      </trkpt>
      <trkpt lat="50.24085" lon="4.17405">
        <ele>181.35</ele>
        <time>2015-07-11T22:21:38Z</time>
      </trkpt>
      <trkpt lat="50.24091" lon="4.1736">
        <ele>182.79</ele>
        <time>2015-07-11T22:21:53Z</time>
      </trkpt>
      <trkpt lat="50.24094" lon="4.17348">
        <ele>183.27</ele>
        <time>2015-07-11T22:21:57Z</time>
      </trkpt>
      <trkpt lat="50.24094" lon="4.17345">
        <ele>183.27</ele>
        <time>2015-07-11T22:21:58Z</time>
      </trkpt>
      <trkpt lat="50.24095" lon="4.17342">
        <ele>183.75</ele>
        <time>2015-07-11T22:21:59Z</time>
      </trkpt>
      <trkpt lat="50.24095" lon="4.17339">
        <ele>183.75</ele>
        <time>2015-07-11T22:22:00Z</time>
      </trkpt>
      <trkpt lat="50.24097" lon="4.17336">
        <ele>183.75</ele>
        <time>2015-07-11T22:22:01Z</time>
      </trkpt>
      <trkpt lat="50.24115" lon="4.17286">
        <ele>185.19</ele>
        <time>2015-07-11T22:22:17Z</time>
      </trkpt>
      <trkpt lat="50.24139" lon="4.17223">
        <ele>186.63</ele>
        <time>2015-07-11T22:22:36Z</time>
      </trkpt>
      <trkpt lat="50.24165" lon="4.17176">
        <ele>188.08</ele>
        <time>2015-07-11T22:22:52Z</time>
      </trkpt>
      <trkpt lat="50.24196" lon="4.17151">
        <ele>190</ele>
        <time>2015-07-11T22:23:06Z</time>
      </trkpt>
      <trkpt lat="50.24235" lon="4.17134">
        <ele>191.44</ele>
        <time>2015-07-11T22:23:22Z</time>
      </trkpt>
      <trkpt lat="50.24276" lon="4.17117">
        <ele>192.4</ele>
        <time>2015-07-11T22:23:37Z</time>
      </trkpt>
      <trkpt lat="50.24318" lon="4.17087">
        <ele>192.88</ele>
        <time>2015-07-11T22:23:51Z</time>
      </trkpt>
      <trkpt lat="50.24352" lon="4.17056">
        <ele>191.44</ele>
        <time>2015-07-11T22:24:00Z</time>
      </trkpt>
      <trkpt lat="50.24355" lon="4.17051">
        <ele>190.96</ele>
        <time>2015-07-11T22:24:01Z</time>
      </trkpt>
      <trkpt lat="50.24359" lon="4.17046">
        <ele>190.48</ele>
        <time>2015-07-11T22:24:02Z</time>
      </trkpt>
      <trkpt lat="50.24362" lon="4.17041">
        <ele>190.48</ele>
        <time>2015-07-11T22:24:03Z</time>
      </trkpt>
      <trkpt lat="50.24364" lon="4.17035">
        <ele>190.48</ele>
        <time>2015-07-11T22:24:04Z</time>
      </trkpt>
      <trkpt lat="50.24366" lon="4.17029">
        <ele>190</ele>
        <time>2015-07-11T22:24:05Z</time>
      </trkpt>
      <trkpt lat="50.24367" lon="4.17022">
        <ele>190</ele>
        <time>2015-07-11T22:24:06Z</time>
      </trkpt>
      <trkpt lat="50.24368" lon="4.17015">
        <ele>190</ele>
        <time>2015-07-11T22:24:07Z</time>
      </trkpt>
      <trkpt lat="50.24369" lon="4.17008">
        <ele>189.52</ele>
        <time>2015-07-11T22:24:08Z</time>
      </trkpt>
      <trkpt lat="50.24377" lon="4.16934">
        <ele>189.04</ele>
        <time>2015-07-11T22:24:18Z</time>
      </trkpt>
      <trkpt lat="50.24381" lon="4.16811">
        <ele>186.15</ele>
        <time>2015-07-11T22:24:32Z</time>
      </trkpt>
      <trkpt lat="50.24382" lon="4.16802">
        <ele>185.67</ele>
        <time>2015-07-11T22:24:33Z</time>
      </trkpt>
      <trkpt lat="50.24382" lon="4.16792">
        <ele>185.67</ele>
        <time>2015-07-11T22:24:34Z</time>
      </trkpt>
      <trkpt lat="50.24383" lon="4.16783">
        <ele>185.67</ele>
        <time>2015-07-11T22:24:35Z</time>
      </trkpt>
      <trkpt lat="50.24385" lon="4.16774">
        <ele>185.67</ele>
        <time>2015-07-11T22:24:36Z</time>
      </trkpt>
      <trkpt lat="50.24404" lon="4.16625">
        <ele>182.31</ele>
        <time>2015-07-11T22:24:52Z</time>
      </trkpt>
      <trkpt lat="50.24424" lon="4.16462">
        <ele>179.42</ele>
        <time>2015-07-11T22:25:08Z</time>
      </trkpt>
      <trkpt lat="50.24442" lon="4.16315">
        <ele>176.06</ele>
        <time>2015-07-11T22:25:22Z</time>
      </trkpt>
      <trkpt lat="50.2446" lon="4.162">
        <ele>173.17</ele>
        <time>2015-07-11T22:25:32Z</time>
      </trkpt>
      <trkpt lat="50.24489" lon="4.16025">
        <ele>171.73</ele>
        <time>2015-07-11T22:25:48Z</time>
      </trkpt>
      <trkpt lat="50.24517" lon="4.15822">
        <ele>170.77</ele>
        <time>2015-07-11T22:26:07Z</time>
      </trkpt>
      <trkpt lat="50.2454" lon="4.15671">
        <ele>170.29</ele>
        <time>2015-07-11T22:26:22Z</time>
      </trkpt>
      <trkpt lat="50.24548" lon="4.15568">
        <ele>169.81</ele>
        <time>2015-07-11T22:26:34Z</time>
      </trkpt>
      <trkpt lat="50.24539" lon="4.15408">
        <ele>169.33</ele>
        <time>2015-07-11T22:26:53Z</time>
      </trkpt>
      <trkpt lat="50.24531" lon="4.15321">
        <ele>168.37</ele>
        <time>2015-07-11T22:27:04Z</time>
      </trkpt>
      <trkpt lat="50.24529" lon="4.15319">
        <ele>168.37</ele>
        <time>2015-07-11T22:27:05Z</time>
      </trkpt>
      <trkpt lat="50.24526" lon="4.15319">
        <ele>168.37</ele>
        <time>2015-07-11T22:27:06Z</time>
      </trkpt>
      <trkpt lat="50.24523" lon="4.15321">
        <ele>168.37</ele>
        <time>2015-07-11T22:27:07Z</time>
      </trkpt>
      <trkpt lat="50.24521" lon="4.15324">
        <ele>168.37</ele>
        <time>2015-07-11T22:27:08Z</time>
      </trkpt>
      <trkpt lat="50.24519" lon="4.15327">
        <ele>168.37</ele>
        <time>2015-07-11T22:27:09Z</time>
      </trkpt>
      <trkpt lat="50.24517" lon="4.15331">
        <ele>168.37</ele>
        <time>2015-07-11T22:27:10Z</time>
      </trkpt>
      <trkpt lat="50.24515" lon="4.15335">
        <ele>168.37</ele>
        <time>2015-07-11T22:27:11Z</time>
      </trkpt>
      <trkpt lat="50.24513" lon="4.15338">
        <ele>168.37</ele>
        <time>2015-07-11T22:27:12Z</time>
      </trkpt>
      <trkpt lat="50.2451" lon="4.15341">
        <ele>167.89</ele>
        <time>2015-07-11T22:27:13Z</time>
      </trkpt>
      <trkpt lat="50.24502" lon="4.15347">
        <ele>167.41</ele>
        <time>2015-07-11T22:27:15Z</time>
      </trkpt>
      <trkpt lat="50.2443" lon="4.15384">
        <ele>166.45</ele>
        <time>2015-07-11T22:27:30Z</time>
      </trkpt>
      <trkpt lat="50.24396" lon="4.15397">
        <ele>169.33</ele>
        <time>2015-07-11T22:27:42Z</time>
      </trkpt>
      <trkpt lat="50.24365" lon="4.15403">
        <ele>171.25</ele>
        <time>2015-07-11T22:27:57Z</time>
      </trkpt>
      <trkpt lat="50.24363" lon="4.15404">
        <ele>171.73</ele>
        <time>2015-07-11T22:27:58Z</time>
      </trkpt>
      <trkpt lat="50.24344" lon="4.15404">
        <ele>172.69</ele>
        <time>2015-07-11T22:28:07Z</time>
      </trkpt>
      <trkpt lat="50.24342" lon="4.15402">
        <ele>172.69</ele>
        <time>2015-07-11T22:28:08Z</time>
      </trkpt>
      <trkpt lat="50.24342" lon="4.15399">
        <ele>172.69</ele>
        <time>2015-07-11T22:28:09Z</time>
      </trkpt>
      <trkpt lat="50.24342" lon="4.15397">
        <ele>172.69</ele>
        <time>2015-07-11T22:28:10Z</time>
      </trkpt>
      <trkpt lat="50.24339" lon="4.15381">
        <ele>173.17</ele>
        <time>2015-07-11T22:28:16Z</time>
      </trkpt>
      <trkpt lat="50.24338" lon="4.1537">
        <ele>173.17</ele>
        <time>2015-07-11T22:28:29Z</time>
      </trkpt>
    </trkseg>
  </trk>
</gpx>